Time,TemperatureF,DewpointF,PressureIn,WindDirection,WindDirectionDegrees,WindSpeedMPH,WindSpeedGustMPH,Humidity,HourlyPrecipIn,Conditions,Clouds,dailyrainin,SoftwareType,DateUTC
2013-05-20 00:00:00,58.7,56.3,29.92,East,90,0.0,0.0,92,0.00,,,0.00,WUHU216HW,2013-05-20 04:00:00,
2013-05-20 00:01:00,58.5,56.2,29.92,East,90,0.0,0.0,92,0.00,,,0.00,WUHU216HW,2013-05-20 04:01:00,
2013-05-20 00:02:00,58.5,56.2,29.92,East,90,0.0,0.0,92,0.00,,,0.00,WUHU216HW,2013-05-20 04:02:00,
2013-05-20 00:07:00,58.5,56.2,29.92,East,90,0.0,0.0,92,0.00,,,0.00,WUHU216HW,2013-05-20 04:07:00,
2013-05-20 00:08:00,58.5,56.5,29.92,East,90,0.0,0.0,93,0.00,,,0.00,WUHU216HW,2013-05-20 04:08:00,
2013-05-20 00:13:00,58.5,56.5,29.92,East,90,0.0,0.0,93,0.00,,,0.00,WUHU216HW,2013-05-20 04:13:00,
2013-05-20 00:14:00,58.5,56.5,29.92,East,90,0.0,0.0,93,0.00,,,0.00,WUHU216HW,2013-05-20 04:14:00,
2013-05-20 00:16:00,58.5,56.5,29.91,East,90,0.0,0.0,93,0.00,,,0.00,WUHU216HW,2013-05-20 04:16:00,
2013-05-20 00:19:00,58.3,56.4,29.91,East,90,0.0,0.0,93,0.00,,,0.00,WUHU216HW,2013-05-20 04:19:00,
2013-05-20 00:20:00,58.3,56.4,29.91,East,90,0.0,0.0,93,0.00,,,0.00,WUHU216HW,2013-05-20 04:20:00,
2013-05-20 00:21:00,58.3,56.4,29.92,East,90,0.0,0.0,93,0.00,,,0.00,WUHU216HW,2013-05-20 04:21:00,
2013-05-20 00:24:00,58.1,56.2,29.92,East,90,0.0,0.0,93,0.00,,,0.00,WUHU216HW,2013-05-20 04:24:00,
2013-05-20 00:25:00,58.0,56.0,29.91,East,90,0.0,0.0,93,0.00,,,0.00,WUHU216HW,2013-05-20 04:25:00,
2013-05-20 00:28:00,58.0,56.0,29.91,East,90,0.0,0.0,93,0.00,,,0.00,WUHU216HW,2013-05-20 04:28:00,
2013-05-20 00:29:00,58.0,56.0,29.92,East,90,0.0,0.0,93,0.00,,,0.00,WUHU216HW,2013-05-20 04:29:00,
2013-05-20 00:30:00,58.0,56.0,29.92,East,90,0.0,0.0,93,0.00,,,0.00,WUHU216HW,2013-05-20 04:30:00,
2013-05-20 00:31:00,58.0,56.0,29.92,East,90,0.0,0.0,93,0.00,,,0.00,WUHU216HW,2013-05-20 04:31:00,
2013-05-20 00:33:00,57.8,55.8,29.92,East,90,0.0,0.0,93,0.00,,,0.00,WUHU216HW,2013-05-20 04:33:00,
2013-05-20 00:34:00,57.8,55.8,29.92,East,90,0.0,0.0,93,0.00,,,0.00,WUHU216HW,2013-05-20 04:34:00,
2013-05-20 00:35:00,57.8,55.8,29.92,ESE,113,0.9,0.9,93,0.00,,,0.00,WUHU216HW,2013-05-20 04:35:00,
2013-05-20 00:36:00,57.8,55.8,29.92,ESE,113,0.9,0.9,93,0.00,,,0.00,WUHU216HW,2013-05-20 04:36:00,
2013-05-20 00:38:00,57.8,55.8,29.92,ESE,113,0.7,0.9,93,0.00,,,0.00,WUHU216HW,2013-05-20 04:38:00,
2013-05-20 00:39:00,57.8,55.8,29.92,ESE,113,0.9,0.9,93,0.00,,,0.00,WUHU216HW,2013-05-20 04:39:00,
2013-05-20 00:41:00,57.6,55.6,29.92,ESE,113,0.3,0.9,93,0.00,,,0.00,WUHU216HW,2013-05-20 04:41:00,
2013-05-20 00:44:00,57.6,55.6,29.92,ESE,113,0.0,0.9,93,0.00,,,0.00,WUHU216HW,2013-05-20 04:44:00,
2013-05-20 00:47:00,57.6,55.6,29.92,ESE,113,0.7,0.9,93,0.00,,,0.00,WUHU216HW,2013-05-20 04:47:00,
2013-05-20 00:48:00,57.6,55.6,29.93,ESE,113,0.6,0.9,93,0.00,,,0.00,WUHU216HW,2013-05-20 04:48:00,
2013-05-20 00:50:00,57.6,55.6,29.93,ESE,113,0.0,0.7,93,0.00,,,0.00,WUHU216HW,2013-05-20 04:50:00,
2013-05-20 00:51:00,57.6,55.6,29.93,ESE,113,0.0,0.7,93,0.00,,,0.00,WUHU216HW,2013-05-20 04:51:00,
2013-05-20 00:53:00,57.6,55.6,29.92,ESE,113,0.0,0.7,93,0.00,,,0.00,WUHU216HW,2013-05-20 04:53:00,
2013-05-20 00:56:00,57.6,55.6,29.93,East,90,0.0,0.4,93,0.00,,,0.00,WUHU216HW,2013-05-20 04:56:00,
2013-05-20 00:57:00,57.6,55.6,29.93,East,90,0.0,0.0,93,0.00,,,0.00,WUHU216HW,2013-05-20 04:57:00,
2013-05-20 00:58:00,57.6,55.6,29.93,East,90,0.0,0.0,93,0.00,,,0.00,WUHU216HW,2013-05-20 04:58:00,
2013-05-20 00:59:00,57.6,55.6,29.93,East,90,0.0,0.0,93,0.00,,,0.00,WUHU216HW,2013-05-20 04:59:00,
2013-05-20 01:01:00,57.6,55.6,29.93,East,90,0.0,0.0,93,0.00,,,0.00,WUHU216HW,2013-05-20 05:01:00,
2013-05-20 01:03:00,57.6,55.6,29.93,East,90,0.0,0.0,93,0.00,,,0.00,WUHU216HW,2013-05-20 05:03:00,
2013-05-20 01:04:00,57.6,55.6,29.93,East,90,0.0,0.0,93,0.00,,,0.00,WUHU216HW,2013-05-20 05:04:00,
2013-05-20 01:07:00,57.6,55.6,29.93,East,90,0.0,0.0,93,0.00,,,0.00,WUHU216HW,2013-05-20 05:07:00,
2013-05-20 01:08:00,57.4,55.5,29.93,East,90,0.0,0.0,93,0.00,,,0.00,WUHU216HW,2013-05-20 05:08:00,
2013-05-20 01:09:00,57.4,55.5,29.93,East,90,0.0,0.0,93,0.00,,,0.00,WUHU216HW,2013-05-20 05:09:00,
2013-05-20 01:10:00,57.4,55.5,29.92,East,90,0.0,0.0,93,0.00,,,0.00,WUHU216HW,2013-05-20 05:10:00,
2013-05-20 01:12:00,57.2,55.3,29.92,East,90,0.0,0.0,93,0.00,,,0.00,WUHU216HW,2013-05-20 05:12:00,
2013-05-20 01:14:00,57.4,55.5,29.92,East,90,0.0,0.0,93,0.00,,,0.00,WUHU216HW,2013-05-20 05:14:00,
2013-05-20 01:15:00,57.4,55.5,29.92,East,90,0.0,0.0,93,0.00,,,0.00,WUHU216HW,2013-05-20 05:15:00,
2013-05-20 01:16:00,57.2,55.3,29.92,East,90,0.0,0.0,93,0.00,,,0.00,WUHU216HW,2013-05-20 05:16:00,
2013-05-20 01:17:00,57.2,55.3,29.92,East,90,0.0,0.0,93,0.00,,,0.00,WUHU216HW,2013-05-20 05:17:00,
2013-05-20 01:19:00,57.2,55.3,29.92,East,90,0.0,0.0,93,0.00,,,0.00,WUHU216HW,2013-05-20 05:19:00,
2013-05-20 01:20:00,57.2,55.3,29.92,East,90,0.0,0.0,93,0.00,,,0.00,WUHU216HW,2013-05-20 05:20:00,
2013-05-20 01:21:00,57.2,55.3,29.92,East,90,0.0,0.0,93,0.00,,,0.00,WUHU216HW,2013-05-20 05:21:00,
2013-05-20 01:23:00,57.2,55.3,29.92,East,90,0.0,0.0,93,0.00,,,0.00,WUHU216HW,2013-05-20 05:23:00,
2013-05-20 01:24:00,57.2,55.3,29.92,East,90,0.0,0.0,93,0.00,,,0.00,WUHU216HW,2013-05-20 05:24:00,
2013-05-20 01:27:00,57.2,55.3,29.92,East,90,0.0,0.0,93,0.00,,,0.00,WUHU216HW,2013-05-20 05:27:00,
2013-05-20 01:28:00,57.2,55.3,29.92,East,90,0.0,0.0,93,0.00,,,0.00,WUHU216HW,2013-05-20 05:28:00,
2013-05-20 01:29:00,57.2,55.3,29.92,East,90,0.0,0.0,93,0.00,,,0.00,WUHU216HW,2013-05-20 05:29:00,
2013-05-20 01:30:00,57.2,55.3,29.92,East,90,0.0,0.0,93,0.00,,,0.00,WUHU216HW,2013-05-20 05:30:00,
2013-05-20 01:32:00,57.2,55.3,29.92,East,90,0.0,0.0,93,0.00,,,0.00,WUHU216HW,2013-05-20 05:32:00,
2013-05-20 01:34:00,57.1,55.1,29.92,East,90,0.0,0.0,93,0.00,,,0.00,WUHU216HW,2013-05-20 05:34:00,
2013-05-20 01:35:00,57.1,55.1,29.92,East,90,0.0,0.0,93,0.00,,,0.00,WUHU216HW,2013-05-20 05:35:00,
2013-05-20 01:36:00,57.1,55.1,29.92,East,90,0.0,0.0,93,0.00,,,0.00,WUHU216HW,2013-05-20 05:36:00,
2013-05-20 01:37:00,57.1,55.1,29.92,East,90,0.0,0.0,93,0.00,,,0.00,WUHU216HW,2013-05-20 05:37:00,
2013-05-20 01:39:00,57.1,55.1,29.92,East,90,0.0,0.0,93,0.00,,,0.00,WUHU216HW,2013-05-20 05:39:00,
2013-05-20 01:41:00,57.1,55.1,29.92,East,90,0.0,0.0,93,0.00,,,0.00,WUHU216HW,2013-05-20 05:41:00,
2013-05-20 01:43:00,57.1,55.1,29.92,East,90,0.0,0.0,93,0.00,,,0.00,WUHU216HW,2013-05-20 05:43:00,
2013-05-20 01:45:00,57.1,55.1,29.92,ESE,113,0.0,0.0,93,0.00,,,0.00,WUHU216HW,2013-05-20 05:45:00,
2013-05-20 01:46:00,57.1,55.1,29.92,East,90,0.0,0.0,93,0.00,,,0.00,WUHU216HW,2013-05-20 05:46:00,
2013-05-20 01:47:00,57.1,55.1,29.92,East,90,0.0,0.0,93,0.00,,,0.00,WUHU216HW,2013-05-20 05:47:00,
2013-05-20 01:48:00,56.9,54.9,29.92,East,90,0.0,0.0,93,0.00,,,0.00,WUHU216HW,2013-05-20 05:48:00,
2013-05-20 01:49:00,57.1,55.1,29.92,East,90,0.0,0.0,93,0.00,,,0.00,WUHU216HW,2013-05-20 05:49:00,
2013-05-20 01:51:00,56.9,54.9,29.92,East,90,0.0,0.0,93,0.00,,,0.00,WUHU216HW,2013-05-20 05:51:00,
2013-05-20 01:53:00,56.9,54.9,29.92,East,90,0.0,0.0,93,0.00,,,0.00,WUHU216HW,2013-05-20 05:53:00,
2013-05-20 01:54:00,56.9,54.9,29.92,East,90,0.0,0.0,93,0.00,,,0.00,WUHU216HW,2013-05-20 05:54:00,
2013-05-20 01:56:00,56.9,54.9,29.92,East,90,0.0,0.0,93,0.00,,,0.00,WUHU216HW,2013-05-20 05:56:00,
2013-05-20 01:58:00,56.9,54.9,29.91,East,90,0.0,0.0,93,0.00,,,0.00,WUHU216HW,2013-05-20 05:58:00,
2013-05-20 01:59:00,56.9,54.9,29.91,East,90,0.0,0.0,93,0.00,,,0.00,WUHU216HW,2013-05-20 05:59:00,
2013-05-20 02:00:00,56.9,54.9,29.91,East,90,0.0,0.0,93,0.00,,,0.00,WUHU216HW,2013-05-20 06:00:00,
2013-05-20 02:02:00,56.9,54.9,29.92,East,90,0.0,0.0,93,0.00,,,0.00,WUHU216HW,2013-05-20 06:02:00,
2013-05-20 02:04:00,56.7,54.7,29.92,East,90,0.0,0.0,93,0.00,,,0.00,WUHU216HW,2013-05-20 06:04:00,
2013-05-20 02:05:00,56.7,54.7,29.92,East,90,0.0,0.0,93,0.00,,,0.00,WUHU216HW,2013-05-20 06:05:00,
2013-05-20 02:09:00,56.7,54.7,29.91,East,90,0.0,0.0,93,0.00,,,0.00,WUHU216HW,2013-05-20 06:09:00,
2013-05-20 02:10:00,56.7,54.7,29.91,East,90,0.0,0.0,93,0.00,,,0.00,WUHU216HW,2013-05-20 06:10:00,
2013-05-20 02:11:00,56.7,54.7,29.91,East,90,0.0,0.0,93,0.00,,,0.00,WUHU216HW,2013-05-20 06:11:00,
2013-05-20 02:14:00,56.5,54.6,29.91,East,90,0.0,0.0,93,0.00,,,0.00,WUHU216HW,2013-05-20 06:14:00,
2013-05-20 02:15:00,56.5,54.6,29.91,East,90,0.0,0.0,93,0.00,,,0.00,WUHU216HW,2013-05-20 06:15:00,
2013-05-20 02:16:00,56.5,54.6,29.92,East,90,0.0,0.0,93,0.00,,,0.00,WUHU216HW,2013-05-20 06:16:00,
2013-05-20 02:17:00,56.5,54.6,29.91,East,90,0.0,0.0,93,0.00,,,0.00,WUHU216HW,2013-05-20 06:17:00,
2013-05-20 02:20:00,56.3,54.4,29.92,East,90,0.0,0.0,93,0.00,,,0.00,WUHU216HW,2013-05-20 06:20:00,
2013-05-20 02:22:00,56.3,54.4,29.92,East,90,0.0,0.0,93,0.00,,,0.00,WUHU216HW,2013-05-20 06:22:00,
2013-05-20 02:27:00,56.3,54.4,29.92,East,90,0.0,0.0,93,0.00,,,0.00,WUHU216HW,2013-05-20 06:27:00,
2013-05-20 02:28:00,56.3,54.4,29.92,East,90,0.0,0.0,93,0.00,,,0.00,WUHU216HW,2013-05-20 06:28:00,
2013-05-20 02:29:00,56.3,54.4,29.92,East,90,0.0,0.0,93,0.00,,,0.00,WUHU216HW,2013-05-20 06:29:00,
2013-05-20 02:32:00,56.2,54.2,29.92,East,90,0.0,0.0,93,0.00,,,0.00,WUHU216HW,2013-05-20 06:32:00,
2013-05-20 02:33:00,56.2,54.2,29.92,East,90,0.0,0.0,93,0.00,,,0.00,WUHU216HW,2013-05-20 06:33:00,
2013-05-20 02:34:00,56.2,54.2,29.92,East,90,0.0,0.0,93,0.00,,,0.00,WUHU216HW,2013-05-20 06:34:00,
2013-05-20 02:35:00,56.0,54.0,29.92,East,90,0.0,0.0,93,0.00,,,0.00,WUHU216HW,2013-05-20 06:35:00,
2013-05-20 02:39:00,56.0,54.0,29.92,East,90,0.0,0.0,93,0.00,,,0.00,WUHU216HW,2013-05-20 06:39:00,
2013-05-20 02:40:00,56.0,54.0,29.92,East,90,0.3,0.4,93,0.00,,,0.00,WUHU216HW,2013-05-20 06:40:00,
2013-05-20 02:41:00,56.0,54.3,29.92,East,90,0.4,0.4,94,0.00,,,0.00,WUHU216HW,2013-05-20 06:41:00,
2013-05-20 02:44:00,56.0,54.3,29.92,East,90,0.4,0.4,94,0.00,,,0.00,WUHU216HW,2013-05-20 06:44:00,
2013-05-20 02:45:00,56.0,54.3,29.92,East,90,0.4,0.4,94,0.00,,,0.00,WUHU216HW,2013-05-20 06:45:00,
2013-05-20 02:46:00,56.0,54.3,29.92,East,90,0.6,0.9,94,0.00,,,0.00,WUHU216HW,2013-05-20 06:46:00,
2013-05-20 02:47:00,56.0,54.3,29.92,East,90,0.6,0.9,94,0.00,,,0.00,WUHU216HW,2013-05-20 06:47:00,
2013-05-20 02:50:00,56.0,54.3,29.91,East,90,0.4,0.9,94,0.00,,,0.00,WUHU216HW,2013-05-20 06:50:00,
2013-05-20 02:52:00,56.0,54.3,29.92,East,90,0.0,0.9,94,0.00,,,0.00,WUHU216HW,2013-05-20 06:52:00,
2013-05-20 02:53:00,56.0,54.3,29.91,East,90,0.0,0.9,94,0.00,,,0.00,WUHU216HW,2013-05-20 06:53:00,
2013-05-20 02:55:00,55.8,54.1,29.91,East,90,0.0,0.9,94,0.00,,,0.00,WUHU216HW,2013-05-20 06:55:00,
2013-05-20 02:57:00,56.0,54.3,29.91,East,90,0.0,0.9,94,0.00,,,0.00,WUHU216HW,2013-05-20 06:57:00,
2013-05-20 03:00:00,55.8,54.1,29.91,East,90,0.0,0.0,94,0.00,,,0.00,WUHU216HW,2013-05-20 07:00:00,
2013-05-20 03:02:00,56.0,54.3,29.91,East,90,0.0,0.0,94,0.00,,,0.00,WUHU216HW,2013-05-20 07:02:00,
2013-05-20 03:03:00,55.8,54.1,29.91,East,90,0.0,0.0,94,0.00,,,0.00,WUHU216HW,2013-05-20 07:03:00,
2013-05-20 03:05:00,56.0,54.3,29.91,East,90,0.0,0.0,94,0.00,,,0.00,WUHU216HW,2013-05-20 07:05:00,
2013-05-20 03:06:00,55.8,54.1,29.91,East,90,0.4,0.4,94,0.00,,,0.00,WUHU216HW,2013-05-20 07:06:00,
2013-05-20 03:07:00,55.8,54.1,29.91,East,90,0.4,0.4,94,0.00,,,0.00,WUHU216HW,2013-05-20 07:07:00,
2013-05-20 03:08:00,55.8,54.1,29.91,East,90,0.0,0.4,94,0.00,,,0.00,WUHU216HW,2013-05-20 07:08:00,
2013-05-20 03:10:00,55.8,54.1,29.91,NE,45,0.0,0.4,94,0.00,,,0.00,WUHU216HW,2013-05-20 07:10:00,
2013-05-20 03:12:00,55.8,54.1,29.91,NE,45,0.0,0.4,94,0.00,,,0.00,WUHU216HW,2013-05-20 07:12:00,
2013-05-20 03:13:00,55.8,54.1,29.91,NE,45,0.0,0.4,94,0.00,,,0.00,WUHU216HW,2013-05-20 07:13:00,
2013-05-20 03:14:00,55.8,54.1,29.91,NE,45,0.0,0.4,94,0.00,,,0.00,WUHU216HW,2013-05-20 07:14:00,
2013-05-20 03:15:00,55.8,54.1,29.91,NE,45,0.0,0.4,94,0.00,,,0.00,WUHU216HW,2013-05-20 07:15:00,
2013-05-20 03:18:00,55.8,54.1,29.91,NE,45,0.0,0.0,94,0.00,,,0.00,WUHU216HW,2013-05-20 07:18:00,
2013-05-20 03:19:00,55.8,54.1,29.91,NE,45,0.0,0.0,94,0.00,,,0.00,WUHU216HW,2013-05-20 07:19:00,
2013-05-20 03:20:00,55.8,54.1,29.91,NE,45,0.0,0.0,94,0.00,,,0.00,WUHU216HW,2013-05-20 07:20:00,
2013-05-20 03:21:00,55.8,54.1,29.91,NE,45,0.0,0.0,94,0.00,,,0.00,WUHU216HW,2013-05-20 07:21:00,
2013-05-20 03:23:00,55.8,54.1,29.91,NE,45,0.0,0.0,94,0.00,,,0.00,WUHU216HW,2013-05-20 07:23:00,
2013-05-20 03:25:00,55.8,54.1,29.91,NE,45,0.0,0.0,94,0.00,,,0.00,WUHU216HW,2013-05-20 07:25:00,
2013-05-20 03:27:00,55.6,53.9,29.91,NE,45,0.0,0.0,94,0.00,,,0.00,WUHU216HW,2013-05-20 07:27:00,
2013-05-20 03:28:00,55.6,53.9,29.91,NE,45,0.0,0.0,94,0.00,,,0.00,WUHU216HW,2013-05-20 07:28:00,
2013-05-20 03:31:00,55.4,53.7,29.91,NE,45,0.0,0.0,94,0.00,,,0.00,WUHU216HW,2013-05-20 07:31:00,
2013-05-20 03:32:00,55.4,53.7,29.91,NE,45,0.0,0.0,94,0.00,,,0.00,WUHU216HW,2013-05-20 07:32:00,
2013-05-20 03:33:00,55.6,53.9,29.91,NE,45,0.0,0.0,94,0.00,,,0.00,WUHU216HW,2013-05-20 07:33:00,
2013-05-20 03:35:00,55.6,53.9,29.91,NE,45,0.0,0.0,94,0.00,,,0.00,WUHU216HW,2013-05-20 07:35:00,
2013-05-20 03:37:00,55.4,53.7,29.91,NE,45,0.0,0.0,94,0.00,,,0.00,WUHU216HW,2013-05-20 07:37:00,
2013-05-20 03:39:00,55.4,53.7,29.91,NE,45,0.0,0.0,94,0.00,,,0.00,WUHU216HW,2013-05-20 07:39:00,
2013-05-20 03:40:00,55.4,53.7,29.91,NE,45,0.0,0.0,94,0.00,,,0.00,WUHU216HW,2013-05-20 07:40:00,
2013-05-20 03:43:00,55.4,53.7,29.91,NE,45,0.0,0.0,94,0.00,,,0.00,WUHU216HW,2013-05-20 07:43:00,
2013-05-20 03:44:00,55.4,53.7,29.91,NE,45,0.0,0.0,94,0.00,,,0.00,WUHU216HW,2013-05-20 07:44:00,
2013-05-20 03:45:00,55.4,53.7,29.91,NE,45,0.0,0.0,94,0.00,,,0.00,WUHU216HW,2013-05-20 07:45:00,
2013-05-20 03:46:00,55.4,53.7,29.91,NE,45,0.0,0.0,94,0.00,,,0.00,WUHU216HW,2013-05-20 07:46:00,
2013-05-20 03:47:00,55.4,53.7,29.91,East,90,0.9,0.9,94,0.00,,,0.00,WUHU216HW,2013-05-20 07:47:00,
2013-05-20 03:49:00,55.4,53.7,29.91,ESE,113,1.8,1.8,94,0.00,,,0.00,WUHU216HW,2013-05-20 07:49:00,
2013-05-20 03:50:00,55.4,53.7,29.91,ESE,113,0.0,1.8,94,0.00,,,0.00,WUHU216HW,2013-05-20 07:50:00,
2013-05-20 03:51:00,55.4,53.7,29.91,ESE,113,0.0,1.8,94,0.00,,,0.00,WUHU216HW,2013-05-20 07:51:00,
2013-05-20 03:52:00,55.4,53.7,29.91,ESE,113,0.0,1.8,94,0.00,,,0.00,WUHU216HW,2013-05-20 07:52:00,
2013-05-20 03:53:00,55.3,53.6,29.91,ESE,113,0.0,1.8,94,0.00,,,0.00,WUHU216HW,2013-05-20 07:53:00,
2013-05-20 03:55:00,55.3,53.6,29.91,ESE,113,0.0,1.8,94,0.00,,,0.00,WUHU216HW,2013-05-20 07:55:00,
2013-05-20 03:56:00,55.3,53.6,29.91,ESE,113,0.0,1.8,94,0.00,,,0.00,WUHU216HW,2013-05-20 07:56:00,
2013-05-20 03:58:00,55.3,53.6,29.91,ESE,113,0.0,1.8,94,0.00,,,0.00,WUHU216HW,2013-05-20 07:58:00,
2013-05-20 03:59:00,55.3,53.6,29.91,ESE,113,0.0,0.0,94,0.00,,,0.00,WUHU216HW,2013-05-20 07:59:00,
2013-05-20 04:01:00,55.3,53.6,29.91,ESE,113,0.0,0.0,94,0.00,,,0.00,WUHU216HW,2013-05-20 08:01:00,
2013-05-20 04:02:00,55.3,53.6,29.91,ESE,113,0.0,0.0,94,0.00,,,0.00,WUHU216HW,2013-05-20 08:02:00,
2013-05-20 04:03:00,55.3,53.6,29.91,ESE,113,0.0,0.0,94,0.00,,,0.00,WUHU216HW,2013-05-20 08:03:00,
2013-05-20 04:04:00,55.3,53.6,29.91,ESE,113,0.0,0.0,94,0.00,,,0.00,WUHU216HW,2013-05-20 08:04:00,
2013-05-20 04:07:00,55.1,53.4,29.91,ESE,113,0.0,0.0,94,0.00,,,0.00,WUHU216HW,2013-05-20 08:07:00,
2013-05-20 04:08:00,55.3,53.6,29.92,ESE,113,0.0,0.0,94,0.00,,,0.00,WUHU216HW,2013-05-20 08:08:00,
2013-05-20 04:09:00,55.1,53.4,29.91,ESE,113,0.0,0.0,94,0.00,,,0.00,WUHU216HW,2013-05-20 08:09:00,
2013-05-20 04:12:00,55.1,53.4,29.91,ESE,113,0.0,0.0,94,0.00,,,0.00,WUHU216HW,2013-05-20 08:12:00,
2013-05-20 04:14:00,55.1,53.4,29.91,ESE,113,0.0,0.0,94,0.00,,,0.00,WUHU216HW,2013-05-20 08:14:00,
2013-05-20 04:15:00,55.1,53.4,29.91,ESE,113,0.0,0.0,94,0.00,,,0.00,WUHU216HW,2013-05-20 08:15:00,
2013-05-20 04:18:00,54.9,53.2,29.91,ESE,113,0.0,0.0,94,0.00,,,0.00,WUHU216HW,2013-05-20 08:18:00,
2013-05-20 04:20:00,54.9,53.2,29.91,ESE,113,0.0,0.0,94,0.00,,,0.00,WUHU216HW,2013-05-20 08:20:00,
2013-05-20 04:23:00,54.9,53.2,29.91,ESE,113,0.0,0.0,94,0.00,,,0.00,WUHU216HW,2013-05-20 08:23:00,
2013-05-20 04:25:00,54.9,53.2,29.91,ESE,113,0.0,0.0,94,0.00,,,0.00,WUHU216HW,2013-05-20 08:25:00,
2013-05-20 04:26:00,54.7,53.0,29.91,ESE,113,0.0,0.0,94,0.00,,,0.00,WUHU216HW,2013-05-20 08:26:00,
2013-05-20 04:27:00,54.7,53.0,29.91,ESE,113,0.0,0.0,94,0.00,,,0.00,WUHU216HW,2013-05-20 08:27:00,
2013-05-20 04:29:00,54.7,53.0,29.91,ESE,113,0.0,0.0,94,0.00,,,0.00,WUHU216HW,2013-05-20 08:29:00,
2013-05-20 04:30:00,54.7,53.0,29.91,ESE,113,0.0,0.0,94,0.00,,,0.00,WUHU216HW,2013-05-20 08:30:00,
2013-05-20 04:31:00,54.7,53.0,29.91,ESE,113,0.0,0.0,94,0.00,,,0.00,WUHU216HW,2013-05-20 08:31:00,
2013-05-20 04:32:00,54.7,53.0,29.91,ESE,113,0.0,0.0,94,0.00,,,0.00,WUHU216HW,2013-05-20 08:32:00,
2013-05-20 04:33:00,54.7,53.0,29.91,ESE,113,0.0,0.0,94,0.00,,,0.00,WUHU216HW,2013-05-20 08:33:00,
2013-05-20 04:35:00,54.7,53.0,29.91,ESE,113,0.0,0.0,94,0.00,,,0.00,WUHU216HW,2013-05-20 08:35:00,
2013-05-20 04:36:00,54.7,53.0,29.91,ESE,113,0.0,0.0,94,0.00,,,0.00,WUHU216HW,2013-05-20 08:36:00,
2013-05-20 04:38:00,54.5,52.8,29.90,ESE,113,0.0,0.0,94,0.00,,,0.00,WUHU216HW,2013-05-20 08:38:00,
2013-05-20 04:41:00,54.5,52.8,29.91,ESE,113,0.0,0.0,94,0.00,,,0.00,WUHU216HW,2013-05-20 08:41:00,
2013-05-20 04:42:00,54.5,52.8,29.90,ESE,113,0.0,0.0,94,0.00,,,0.00,WUHU216HW,2013-05-20 08:42:00,
2013-05-20 04:43:00,54.5,52.8,29.91,ESE,113,0.0,0.0,94,0.00,,,0.00,WUHU216HW,2013-05-20 08:43:00,
2013-05-20 04:44:00,54.5,52.8,29.91,ESE,113,0.0,0.0,94,0.00,,,0.00,WUHU216HW,2013-05-20 08:44:00,
2013-05-20 04:46:00,54.5,52.8,29.91,ESE,113,0.0,0.0,94,0.00,,,0.00,WUHU216HW,2013-05-20 08:46:00,
2013-05-20 04:47:00,54.5,52.8,29.91,ESE,113,0.0,0.0,94,0.00,,,0.00,WUHU216HW,2013-05-20 08:47:00,
2013-05-20 04:48:00,54.5,52.8,29.91,ESE,113,0.0,0.0,94,0.00,,,0.00,WUHU216HW,2013-05-20 08:48:00,
2013-05-20 04:49:00,54.5,52.8,29.91,ESE,113,0.0,0.0,94,0.00,,,0.00,WUHU216HW,2013-05-20 08:49:00,
2013-05-20 04:52:00,54.5,52.8,29.91,ESE,113,0.0,0.0,94,0.00,,,0.00,WUHU216HW,2013-05-20 08:52:00,
2013-05-20 04:53:00,54.5,52.8,29.91,ESE,113,0.0,0.0,94,0.00,,,0.00,WUHU216HW,2013-05-20 08:53:00,
2013-05-20 04:54:00,54.7,53.0,29.91,ESE,113,0.0,0.0,94,0.00,,,0.00,WUHU216HW,2013-05-20 08:54:00,
2013-05-20 04:55:00,54.5,52.8,29.91,ESE,113,0.0,0.0,94,0.00,,,0.00,WUHU216HW,2013-05-20 08:55:00,
2013-05-20 04:57:00,54.5,52.8,29.91,ESE,113,0.0,0.0,94,0.00,,,0.00,WUHU216HW,2013-05-20 08:57:00,
2013-05-20 04:58:00,54.5,52.8,29.91,ESE,113,0.0,0.0,94,0.00,,,0.00,WUHU216HW,2013-05-20 08:58:00,
2013-05-20 04:59:00,54.4,52.7,29.91,ESE,113,0.0,0.0,94,0.00,,,0.00,WUHU216HW,2013-05-20 08:59:00,
2013-05-20 05:01:00,54.4,52.7,29.91,ESE,113,0.0,0.0,94,0.00,,,0.00,WUHU216HW,2013-05-20 09:01:00,
2013-05-20 05:02:00,54.4,52.7,29.91,ESE,113,0.0,0.0,94,0.00,,,0.00,WUHU216HW,2013-05-20 09:02:00,
2013-05-20 05:04:00,54.4,52.7,29.91,ESE,113,0.0,0.0,94,0.00,,,0.00,WUHU216HW,2013-05-20 09:04:00,
2013-05-20 05:05:00,54.4,52.7,29.91,ESE,113,0.0,0.0,94,0.00,,,0.00,WUHU216HW,2013-05-20 09:05:00,
2013-05-20 05:06:00,54.4,52.7,29.91,ESE,113,0.0,0.0,94,0.00,,,0.00,WUHU216HW,2013-05-20 09:06:00,
2013-05-20 05:07:00,54.4,52.7,29.91,ESE,113,0.0,0.0,94,0.00,,,0.00,WUHU216HW,2013-05-20 09:07:00,
2013-05-20 05:08:00,54.4,52.7,29.91,ESE,113,0.0,0.0,94,0.00,,,0.00,WUHU216HW,2013-05-20 09:08:00,
2013-05-20 05:10:00,54.4,52.7,29.92,ESE,113,0.0,0.0,94,0.00,,,0.00,WUHU216HW,2013-05-20 09:10:00,
2013-05-20 05:11:00,54.4,52.7,29.92,East,90,0.0,0.0,94,0.00,,,0.00,WUHU216HW,2013-05-20 09:11:00,
2013-05-20 05:13:00,54.4,52.7,29.92,East,90,0.0,0.0,94,0.00,,,0.00,WUHU216HW,2013-05-20 09:13:00,
2013-05-20 05:15:00,54.4,52.7,29.92,East,90,0.0,0.0,94,0.00,,,0.00,WUHU216HW,2013-05-20 09:15:00,
2013-05-20 05:16:00,54.4,52.7,29.92,East,90,0.0,0.0,94,0.00,,,0.00,WUHU216HW,2013-05-20 09:16:00,
2013-05-20 05:19:00,54.4,52.7,29.92,East,90,0.0,0.0,94,0.00,,,0.00,WUHU216HW,2013-05-20 09:19:00,
2013-05-20 05:20:00,54.4,52.7,29.92,East,90,0.0,0.0,94,0.00,,,0.00,WUHU216HW,2013-05-20 09:20:00,
2013-05-20 05:21:00,54.4,52.7,29.92,East,90,0.0,0.0,94,0.00,,,0.00,WUHU216HW,2013-05-20 09:21:00,
2013-05-20 05:22:00,54.4,52.7,29.92,East,90,0.0,0.0,94,0.00,,,0.00,WUHU216HW,2013-05-20 09:22:00,
2013-05-20 05:24:00,54.4,52.7,29.92,East,90,0.0,0.0,94,0.00,,,0.00,WUHU216HW,2013-05-20 09:24:00,
2013-05-20 05:26:00,54.4,52.7,29.92,East,90,0.0,0.0,94,0.00,,,0.00,WUHU216HW,2013-05-20 09:26:00,
2013-05-20 05:27:00,54.4,52.7,29.92,East,90,0.0,0.0,94,0.00,,,0.00,WUHU216HW,2013-05-20 09:27:00,
2013-05-20 05:28:00,54.4,52.7,29.92,East,90,0.0,0.0,94,0.00,,,0.00,WUHU216HW,2013-05-20 09:28:00,
2013-05-20 05:31:00,54.4,52.7,29.92,East,90,0.0,0.0,94,0.00,,,0.00,WUHU216HW,2013-05-20 09:31:00,
2013-05-20 05:32:00,54.4,52.7,29.92,East,90,0.0,0.0,94,0.00,,,0.00,WUHU216HW,2013-05-20 09:32:00,
2013-05-20 05:34:00,54.2,52.5,29.92,East,90,0.0,0.0,94,0.00,,,0.00,WUHU216HW,2013-05-20 09:34:00,
2013-05-20 05:37:00,54.2,52.5,29.92,East,90,0.0,0.0,94,0.00,,,0.00,WUHU216HW,2013-05-20 09:37:00,
2013-05-20 05:39:00,54.4,52.7,29.92,East,90,0.0,0.0,94,0.00,,,0.00,WUHU216HW,2013-05-20 09:39:00,
2013-05-20 05:40:00,54.4,52.7,29.92,East,90,0.0,0.0,94,0.00,,,0.00,WUHU216HW,2013-05-20 09:40:00,
2013-05-20 05:42:00,54.4,52.7,29.92,East,90,0.0,0.0,94,0.00,,,0.00,WUHU216HW,2013-05-20 09:42:00,
2013-05-20 05:43:00,54.4,52.7,29.92,East,90,0.0,0.0,94,0.00,,,0.00,WUHU216HW,2013-05-20 09:43:00,
2013-05-20 05:45:00,54.4,52.7,29.92,East,90,0.0,0.0,94,0.00,,,0.00,WUHU216HW,2013-05-20 09:45:00,
2013-05-20 05:46:00,54.2,52.5,29.92,East,90,0.0,0.0,94,0.00,,,0.00,WUHU216HW,2013-05-20 09:46:00,
2013-05-20 05:48:00,54.2,52.5,29.92,East,90,0.0,0.0,94,0.00,,,0.00,WUHU216HW,2013-05-20 09:48:00,
2013-05-20 05:49:00,54.2,52.5,29.92,East,90,0.0,0.0,94,0.00,,,0.00,WUHU216HW,2013-05-20 09:49:00,
2013-05-20 05:51:00,54.2,52.5,29.92,East,90,0.0,0.0,94,0.00,,,0.00,WUHU216HW,2013-05-20 09:51:00,
2013-05-20 05:54:00,54.4,52.7,29.92,East,90,0.0,0.0,94,0.00,,,0.00,WUHU216HW,2013-05-20 09:54:00,
2013-05-20 05:55:00,54.4,52.7,29.92,East,90,0.0,0.0,94,0.00,,,0.00,WUHU216HW,2013-05-20 09:55:00,
2013-05-20 05:56:00,54.4,52.7,29.92,East,90,0.0,0.0,94,0.00,,,0.00,WUHU216HW,2013-05-20 09:56:00,
2013-05-20 05:57:00,54.4,52.7,29.92,East,90,0.0,0.0,94,0.00,,,0.00,WUHU216HW,2013-05-20 09:57:00,
2013-05-20 05:59:00,54.4,52.7,29.92,East,90,0.0,0.0,94,0.00,,,0.00,WUHU216HW,2013-05-20 09:59:00,
2013-05-20 06:01:00,54.4,52.7,29.92,East,90,0.0,0.0,94,0.00,,,0.00,WUHU216HW,2013-05-20 10:01:00,
2013-05-20 06:02:00,54.4,52.7,29.92,East,90,0.0,0.0,94,0.00,,,0.00,WUHU216HW,2013-05-20 10:02:00,
2013-05-20 06:06:00,54.2,52.5,29.92,East,90,0.0,0.0,94,0.00,,,0.00,WUHU216HW,2013-05-20 10:06:00,
2013-05-20 06:07:00,54.2,52.5,29.92,East,90,0.0,0.0,94,0.00,,,0.00,WUHU216HW,2013-05-20 10:07:00,
2013-05-20 06:08:00,54.2,52.5,29.92,East,90,0.0,0.0,94,0.00,,,0.00,WUHU216HW,2013-05-20 10:08:00,
2013-05-20 06:12:00,54.0,52.6,29.92,East,90,0.0,0.0,95,0.00,,,0.00,WUHU216HW,2013-05-20 10:12:00,
2013-05-20 06:13:00,54.0,52.3,29.92,East,90,0.0,0.0,94,0.00,,,0.00,WUHU216HW,2013-05-20 10:13:00,
2013-05-20 06:17:00,54.2,52.7,29.93,East,90,0.0,0.0,95,0.00,,,0.00,WUHU216HW,2013-05-20 10:17:00,
2013-05-20 06:18:00,54.0,52.3,29.93,East,90,0.0,0.0,94,0.00,,,0.00,WUHU216HW,2013-05-20 10:18:00,
2013-05-20 06:19:00,54.0,52.6,29.93,East,90,0.0,0.0,95,0.00,,,0.00,WUHU216HW,2013-05-20 10:19:00,
2013-05-20 06:21:00,54.0,52.6,29.93,East,90,0.0,0.0,95,0.00,,,0.00,WUHU216HW,2013-05-20 10:21:00,
2013-05-20 06:23:00,54.2,52.7,29.93,East,90,0.0,0.0,95,0.00,,,0.00,WUHU216HW,2013-05-20 10:23:00,
2013-05-20 06:24:00,54.2,52.7,29.93,East,90,0.0,0.0,95,0.00,,,0.00,WUHU216HW,2013-05-20 10:24:00,
2013-05-20 06:25:00,54.0,52.6,29.93,East,90,0.0,0.0,95,0.00,,,0.00,WUHU216HW,2013-05-20 10:25:00,
2013-05-20 06:26:00,54.0,52.6,29.93,East,90,0.0,0.0,95,0.00,,,0.00,WUHU216HW,2013-05-20 10:26:00,
2013-05-20 06:27:00,54.0,52.6,29.93,East,90,0.0,0.0,95,0.00,,,0.00,WUHU216HW,2013-05-20 10:27:00,
2013-05-20 06:28:00,54.0,52.6,29.93,East,90,0.0,0.0,95,0.00,,,0.00,WUHU216HW,2013-05-20 10:28:00,
2013-05-20 06:29:00,54.0,52.6,29.93,East,90,0.0,0.0,95,0.00,,,0.00,WUHU216HW,2013-05-20 10:29:00,
2013-05-20 06:31:00,54.0,52.6,29.93,East,90,0.0,0.0,95,0.00,,,0.00,WUHU216HW,2013-05-20 10:31:00,
2013-05-20 06:33:00,54.0,52.6,29.93,East,90,0.0,0.0,95,0.00,,,0.00,WUHU216HW,2013-05-20 10:33:00,
2013-05-20 06:34:00,54.0,52.6,29.93,East,90,0.0,0.0,95,0.00,,,0.00,WUHU216HW,2013-05-20 10:34:00,
2013-05-20 06:35:00,54.0,52.6,29.93,East,90,0.0,0.0,95,0.00,,,0.00,WUHU216HW,2013-05-20 10:35:00,
2013-05-20 06:37:00,54.0,52.6,29.94,East,90,0.0,0.0,95,0.00,,,0.00,WUHU216HW,2013-05-20 10:37:00,
2013-05-20 06:38:00,54.0,52.6,29.94,East,90,0.0,0.0,95,0.00,,,0.00,WUHU216HW,2013-05-20 10:38:00,
2013-05-20 06:40:00,54.0,52.6,29.94,East,90,0.0,0.0,95,0.00,,,0.00,WUHU216HW,2013-05-20 10:40:00,
2013-05-20 06:41:00,54.0,52.6,29.94,East,90,0.0,0.0,95,0.00,,,0.00,WUHU216HW,2013-05-20 10:41:00,
2013-05-20 06:42:00,54.0,52.6,29.94,East,90,0.0,0.0,95,0.00,,,0.00,WUHU216HW,2013-05-20 10:42:00,
2013-05-20 06:43:00,54.0,52.6,29.94,East,90,0.0,0.0,95,0.00,,,0.00,WUHU216HW,2013-05-20 10:43:00,
2013-05-20 06:45:00,54.0,52.6,29.94,East,90,0.0,0.0,95,0.00,,,0.00,WUHU216HW,2013-05-20 10:45:00,
2013-05-20 06:46:00,54.0,52.6,29.94,East,90,0.0,0.0,95,0.00,,,0.00,WUHU216HW,2013-05-20 10:46:00,
2013-05-20 06:48:00,54.2,52.7,29.94,East,90,0.0,0.0,95,0.00,,,0.00,WUHU216HW,2013-05-20 10:48:00,
2013-05-20 06:50:00,54.2,52.7,29.94,East,90,0.0,0.0,95,0.00,,,0.00,WUHU216HW,2013-05-20 10:50:00,
2013-05-20 06:51:00,54.2,52.7,29.94,East,90,0.0,0.0,95,0.00,,,0.00,WUHU216HW,2013-05-20 10:51:00,
2013-05-20 06:52:00,54.0,52.6,29.94,East,90,0.0,0.0,95,0.00,,,0.00,WUHU216HW,2013-05-20 10:52:00,
2013-05-20 06:53:00,54.2,52.7,29.94,East,90,0.0,0.0,95,0.00,,,0.00,WUHU216HW,2013-05-20 10:53:00,
2013-05-20 06:54:00,54.2,52.7,29.94,East,90,0.0,0.0,95,0.00,,,0.00,WUHU216HW,2013-05-20 10:54:00,
2013-05-20 06:56:00,54.2,52.7,29.94,East,90,0.0,0.0,95,0.00,,,0.00,WUHU216HW,2013-05-20 10:56:00,
2013-05-20 06:57:00,54.2,52.7,29.94,East,90,0.0,0.0,95,0.00,,,0.00,WUHU216HW,2013-05-20 10:57:00,
2013-05-20 06:59:00,54.4,52.9,29.94,East,90,0.0,0.0,95,0.00,,,0.00,WUHU216HW,2013-05-20 10:59:00,
2013-05-20 07:00:00,54.4,52.9,29.94,East,90,0.0,0.0,95,0.00,,,0.00,WUHU216HW,2013-05-20 11:00:00,
2013-05-20 07:01:00,54.4,52.9,29.94,East,90,0.0,0.0,95,0.00,,,0.00,WUHU216HW,2013-05-20 11:01:00,
2013-05-20 07:02:00,54.4,52.9,29.94,East,90,0.0,0.0,95,0.00,,,0.00,WUHU216HW,2013-05-20 11:02:00,
2013-05-20 07:04:00,54.5,53.1,29.95,East,90,0.0,0.0,95,0.00,,,0.00,WUHU216HW,2013-05-20 11:04:00,
2013-05-20 07:06:00,54.7,53.3,29.95,East,90,0.0,0.0,95,0.00,,,0.00,WUHU216HW,2013-05-20 11:06:00,
2013-05-20 07:07:00,54.7,53.3,29.95,East,90,0.0,0.0,95,0.00,,,0.00,WUHU216HW,2013-05-20 11:07:00,
2013-05-20 07:10:00,54.9,53.5,29.95,East,90,0.0,0.0,95,0.00,,,0.00,WUHU216HW,2013-05-20 11:10:00,
2013-05-20 07:11:00,55.1,53.6,29.95,East,90,0.0,0.0,95,0.00,,,0.00,WUHU216HW,2013-05-20 11:11:00,
2013-05-20 07:12:00,55.1,53.6,29.95,East,90,0.0,0.0,95,0.00,,,0.00,WUHU216HW,2013-05-20 11:12:00,
2013-05-20 07:13:00,55.1,53.6,29.95,East,90,0.0,0.0,95,0.00,,,0.00,WUHU216HW,2013-05-20 11:13:00,
2013-05-20 07:15:00,55.3,53.8,29.95,East,90,0.0,0.0,95,0.00,,,0.00,WUHU216HW,2013-05-20 11:15:00,
2013-05-20 07:16:00,55.4,54.0,29.95,East,90,0.0,0.0,95,0.00,,,0.00,WUHU216HW,2013-05-20 11:16:00,
2013-05-20 07:17:00,55.4,53.7,29.95,East,90,0.0,0.0,94,0.00,,,0.00,WUHU216HW,2013-05-20 11:17:00,
2013-05-20 07:20:00,55.6,54.2,29.95,East,90,0.0,0.0,95,0.00,,,0.00,WUHU216HW,2013-05-20 11:20:00,
2013-05-20 07:21:00,55.6,53.9,29.95,East,90,0.0,0.0,94,0.00,,,0.00,WUHU216HW,2013-05-20 11:21:00,
2013-05-20 07:23:00,55.8,54.1,29.95,East,90,0.0,0.0,94,0.00,,,0.00,WUHU216HW,2013-05-20 11:23:00,
2013-05-20 07:26:00,56.0,54.3,29.96,ENE,68,0.0,0.0,94,0.00,,,0.00,WUHU216HW,2013-05-20 11:26:00,
2013-05-20 07:27:00,56.0,54.3,29.96,ENE,68,0.0,0.0,94,0.00,,,0.00,WUHU216HW,2013-05-20 11:27:00,
2013-05-20 07:29:00,56.2,54.5,29.96,ENE,68,0.0,0.0,94,0.00,,,0.00,WUHU216HW,2013-05-20 11:29:00,
2013-05-20 07:32:00,56.2,54.5,29.95,ESE,113,0.9,0.9,94,0.00,,,0.00,WUHU216HW,2013-05-20 11:32:00,
2013-05-20 07:33:00,56.3,54.6,29.95,ESE,113,0.7,0.9,94,0.00,,,0.00,WUHU216HW,2013-05-20 11:33:00,
2013-05-20 07:34:00,56.5,54.8,29.95,ESE,113,0.0,0.9,94,0.00,,,0.00,WUHU216HW,2013-05-20 11:34:00,
2013-05-20 07:35:00,56.5,54.8,29.95,ESE,113,0.0,0.9,94,0.00,,,0.00,WUHU216HW,2013-05-20 11:35:00,
2013-05-20 07:38:00,56.7,55.0,29.95,ESE,113,1.1,1.1,94,0.00,,,0.00,WUHU216HW,2013-05-20 11:38:00,
2013-05-20 07:39:00,56.9,55.2,29.95,ESE,113,1.3,1.3,94,0.00,,,0.00,WUHU216HW,2013-05-20 11:39:00,
2013-05-20 07:41:00,57.1,55.4,29.95,ESE,113,0.4,1.3,94,0.00,,,0.00,WUHU216HW,2013-05-20 11:41:00,
2013-05-20 07:43:00,57.2,55.5,29.95,ESE,113,0.4,1.3,94,0.00,,,0.00,WUHU216HW,2013-05-20 11:43:00,
2013-05-20 07:44:00,57.2,55.5,29.95,ESE,113,1.1,1.3,94,0.00,,,0.00,WUHU216HW,2013-05-20 11:44:00,
2013-05-20 07:45:00,57.4,55.7,29.95,ESE,113,0.8,1.3,94,0.00,,,0.00,WUHU216HW,2013-05-20 11:45:00,
2013-05-20 07:47:00,57.8,56.1,29.95,SE,135,0.2,1.3,94,0.00,,,0.00,WUHU216HW,2013-05-20 11:47:00,
2013-05-20 07:49:00,58.0,56.3,29.95,SE,135,0.4,1.1,94,0.00,,,0.00,WUHU216HW,2013-05-20 11:49:00,
2013-05-20 07:50:00,58.1,56.4,29.95,SE,135,0.3,1.1,94,0.00,,,0.00,WUHU216HW,2013-05-20 11:50:00,
2013-05-20 07:52:00,58.5,56.8,29.95,SE,135,0.7,1.1,94,0.00,,,0.00,WUHU216HW,2013-05-20 11:52:00,
2013-05-20 07:55:00,58.7,57.0,29.95,SE,135,0.7,0.7,94,0.00,,,0.00,WUHU216HW,2013-05-20 11:55:00,
2013-05-20 07:58:00,59.0,57.3,29.96,SE,135,0.0,0.7,94,0.00,,,0.00,WUHU216HW,2013-05-20 11:58:00,
2013-05-20 08:01:00,59.9,58.5,29.95,ESE,113,0.0,0.7,95,0.00,,,0.00,WUHU216HW,2013-05-20 12:01:00,
2013-05-20 08:02:00,60.1,58.4,29.95,ESE,113,0.0,0.7,94,0.00,,,0.00,WUHU216HW,2013-05-20 12:02:00,
2013-05-20 08:03:00,60.5,59.0,29.96,ESE,113,0.0,0.7,95,0.00,,,0.00,WUHU216HW,2013-05-20 12:03:00,
2013-05-20 08:06:00,61.4,59.7,29.96,ESE,113,0.0,0.2,94,0.00,,,0.00,WUHU216HW,2013-05-20 12:06:00,
2013-05-20 08:07:00,61.6,59.9,29.96,ESE,113,0.0,0.2,94,0.00,,,0.00,WUHU216HW,2013-05-20 12:07:00,
2013-05-20 08:09:00,61.7,60.0,29.96,ESE,113,0.0,0.0,94,0.00,,,0.00,WUHU216HW,2013-05-20 12:09:00,
2013-05-20 08:12:00,62.6,60.9,29.96,ESE,113,0.0,0.0,94,0.00,,,0.00,WUHU216HW,2013-05-20 12:12:00,
2013-05-20 08:14:00,62.8,60.9,29.96,ESE,113,0.0,0.0,93,0.00,,,0.00,WUHU216HW,2013-05-20 12:14:00,
2013-05-20 08:17:00,63.4,61.4,29.96,NNE,23,0.0,0.0,93,0.00,,,0.00,WUHU216HW,2013-05-20 12:17:00,
2013-05-20 08:18:00,63.7,61.8,29.96,NNE,23,0.0,0.0,93,0.00,,,0.00,WUHU216HW,2013-05-20 12:18:00,
2013-05-20 08:19:00,64.1,62.1,29.96,North,0,0.0,0.0,93,0.00,,,0.00,WUHU216HW,2013-05-20 12:19:00,
2013-05-20 08:20:00,64.6,62.6,29.96,North,0,0.0,0.0,93,0.00,,,0.00,WUHU216HW,2013-05-20 12:20:00,
2013-05-20 08:22:00,65.5,63.1,29.96,North,0,0.0,0.0,92,0.00,,,0.00,WUHU216HW,2013-05-20 12:22:00,
2013-05-20 08:23:00,65.9,63.2,29.96,North,0,0.0,0.0,91,0.00,,,0.00,WUHU216HW,2013-05-20 12:23:00,
2013-05-20 08:24:00,66.1,63.4,29.97,North,0,0.0,0.0,91,0.00,,,0.00,WUHU216HW,2013-05-20 12:24:00,
2013-05-20 08:25:00,66.2,63.5,29.97,NW,315,0.0,0.0,91,0.00,,,0.00,WUHU216HW,2013-05-20 12:25:00,
2013-05-20 08:26:00,66.2,63.5,29.97,NW,315,0.0,0.0,91,0.00,,,0.00,WUHU216HW,2013-05-20 12:26:00,
2013-05-20 08:28:00,66.4,63.6,29.97,NNW,338,0.4,0.4,91,0.00,,,0.00,WUHU216HW,2013-05-20 12:28:00,
2013-05-20 08:29:00,66.4,63.6,29.97,NNW,338,0.4,0.4,91,0.00,,,0.00,WUHU216HW,2013-05-20 12:29:00,
2013-05-20 08:30:00,66.4,63.6,29.97,NNW,338,0.0,0.4,91,0.00,,,0.00,WUHU216HW,2013-05-20 12:30:00,
2013-05-20 08:31:00,66.4,63.6,29.97,NNW,338,0.0,0.4,91,0.00,,,0.00,WUHU216HW,2013-05-20 12:31:00,
2013-05-20 08:34:00,66.1,63.0,29.97,NNW,338,0.2,0.7,90,0.00,,,0.00,WUHU216HW,2013-05-20 12:34:00,
2013-05-20 08:36:00,65.7,62.4,29.97,NE,45,0.4,0.7,89,0.00,,,0.00,WUHU216HW,2013-05-20 12:36:00,
2013-05-20 08:37:00,65.7,62.4,29.97,NE,45,0.4,0.7,89,0.00,,,0.00,WUHU216HW,2013-05-20 12:37:00,
2013-05-20 08:40:00,65.9,63.2,29.97,NE,45,0.0,0.7,91,0.00,,,0.00,WUHU216HW,2013-05-20 12:40:00,
2013-05-20 08:41:00,65.9,63.2,29.97,SSW,203,0.4,0.4,91,0.00,,,0.00,WUHU216HW,2013-05-20 12:41:00,
2013-05-20 08:42:00,66.1,63.4,29.97,SSW,203,0.3,0.4,91,0.00,,,0.00,WUHU216HW,2013-05-20 12:42:00,
2013-05-20 08:43:00,66.2,63.5,29.97,SSW,203,0.2,0.4,91,0.00,,,0.00,WUHU216HW,2013-05-20 12:43:00,
2013-05-20 08:46:00,66.4,63.6,29.97,SSW,203,0.0,0.4,91,0.00,,,0.00,WUHU216HW,2013-05-20 12:46:00,
2013-05-20 08:47:00,66.4,63.6,29.97,SSW,203,0.0,0.4,91,0.00,,,0.00,WUHU216HW,2013-05-20 12:47:00,
2013-05-20 08:49:00,66.6,63.5,29.97,SSW,203,0.0,0.4,90,0.00,,,0.00,WUHU216HW,2013-05-20 12:49:00,
2013-05-20 08:52:00,66.4,63.4,29.97,SW,225,0.0,0.2,90,0.00,,,0.00,WUHU216HW,2013-05-20 12:52:00,
2013-05-20 08:53:00,66.2,63.2,29.97,SW,225,0.0,0.0,90,0.00,,,0.00,WUHU216HW,2013-05-20 12:53:00,
2013-05-20 08:54:00,66.2,63.2,29.97,SW,225,0.0,0.0,90,0.00,,,0.00,WUHU216HW,2013-05-20 12:54:00,
2013-05-20 08:55:00,66.1,63.0,29.97,SW,225,0.0,0.0,90,0.00,,,0.00,WUHU216HW,2013-05-20 12:55:00,
2013-05-20 08:57:00,65.9,62.8,29.97,SW,225,0.0,0.0,90,0.00,,,0.00,WUHU216HW,2013-05-20 12:57:00,
2013-05-20 08:58:00,65.9,62.8,29.97,SW,225,0.0,0.0,90,0.00,,,0.00,WUHU216HW,2013-05-20 12:58:00,
2013-05-20 08:59:00,65.9,62.8,29.97,SW,225,0.0,0.0,90,0.00,,,0.00,WUHU216HW,2013-05-20 12:59:00,
2013-05-20 09:00:00,65.9,62.8,29.97,SW,225,0.0,0.0,90,0.00,,,0.00,WUHU216HW,2013-05-20 13:00:00,
2013-05-20 09:04:00,65.9,62.8,29.97,SW,225,0.0,0.0,90,0.00,,,0.00,WUHU216HW,2013-05-20 13:04:00,
2013-05-20 09:05:00,66.1,63.0,29.98,SW,225,0.0,0.0,90,0.00,,,0.00,WUHU216HW,2013-05-20 13:05:00,
2013-05-20 09:10:00,66.6,63.5,29.98,ESE,113,0.9,0.9,90,0.00,,,0.00,WUHU216HW,2013-05-20 13:10:00,
2013-05-20 09:11:00,66.6,63.5,29.97,ESE,113,1.1,1.1,90,0.00,,,0.00,WUHU216HW,2013-05-20 13:11:00,
2013-05-20 09:15:00,66.6,63.5,29.98,ENE,68,0.8,2.5,90,0.00,,,0.00,WUHU216HW,2013-05-20 13:15:00,
2013-05-20 09:16:00,66.6,63.2,29.98,NE,45,1.6,2.5,89,0.00,,,0.00,WUHU216HW,2013-05-20 13:16:00,
2013-05-20 09:17:00,66.6,63.2,29.98,NE,45,1.6,2.5,89,0.00,,,0.00,WUHU216HW,2013-05-20 13:17:00,
2013-05-20 09:19:00,67.0,63.9,29.98,NNE,23,1.1,2.5,90,0.00,,,0.00,WUHU216HW,2013-05-20 13:19:00,
2013-05-20 09:20:00,67.0,63.9,29.98,NNE,23,1.1,2.5,90,0.00,,,0.00,WUHU216HW,2013-05-20 13:20:00,
2013-05-20 09:22:00,67.1,63.7,29.98,ESE,113,1.8,1.8,89,0.00,,,0.00,WUHU216HW,2013-05-20 13:22:00,
2013-05-20 09:24:00,67.1,63.7,29.97,ENE,69,1.3,1.8,89,0.00,,,0.00,WUHU216HW,2013-05-20 13:24:00,
2013-05-20 09:25:00,67.3,63.9,29.98,NE,36,0.6,1.8,89,0.00,,,0.00,WUHU216HW,2013-05-20 13:25:00,
2013-05-20 09:27:00,67.5,64.4,29.98,East,83,0.6,1.8,90,0.00,,,0.00,WUHU216HW,2013-05-20 13:27:00,
2013-05-20 09:28:00,67.7,64.0,29.97,NNE,23,2.5,2.5,88,0.00,,,0.00,WUHU216HW,2013-05-20 13:28:00,
2013-05-20 09:30:00,67.9,64.4,29.97,SE,125,1.3,2.5,89,0.00,,,0.00,WUHU216HW,2013-05-20 13:30:00,
2013-05-20 09:31:00,67.9,64.4,29.97,SE,125,1.3,2.5,89,0.00,,,0.00,WUHU216HW,2013-05-20 13:31:00,
2013-05-20 09:33:00,68.4,65.0,29.97,ESE,107,0.8,2.5,89,0.00,,,0.00,WUHU216HW,2013-05-20 13:33:00,
2013-05-20 09:34:00,68.4,65.0,29.97,ESE,107,0.8,2.5,89,0.00,,,0.00,WUHU216HW,2013-05-20 13:34:00,
2013-05-20 09:37:00,69.3,65.9,29.97,ESE,113,2.7,2.7,89,0.00,,,0.00,WUHU216HW,2013-05-20 13:37:00,
2013-05-20 09:38:00,69.7,65.6,29.97,ENE,67,2.6,2.7,87,0.00,,,0.00,WUHU216HW,2013-05-20 13:38:00,
2013-05-20 09:41:00,69.8,66.1,29.97,East,81,1.5,2.7,88,0.00,,,0.00,WUHU216HW,2013-05-20 13:41:00,
2013-05-20 09:42:00,70.0,66.2,29.98,ENE,68,0.8,2.7,88,0.00,,,0.00,WUHU216HW,2013-05-20 13:42:00,
2013-05-20 09:44:00,70.4,66.6,29.97,ESE,113,2.8,2.9,88,0.00,,,0.00,WUHU216HW,2013-05-20 13:44:00,
2013-05-20 09:46:00,70.9,66.9,29.97,ESE,115,1.0,2.9,87,0.00,,,0.00,WUHU216HW,2013-05-20 13:46:00,
2013-05-20 09:47:00,70.9,66.9,29.97,ESE,115,1.0,2.9,87,0.00,,,0.00,WUHU216HW,2013-05-20 13:47:00,
2013-05-20 09:49:00,71.3,66.9,29.97,ENE,68,2.9,2.9,86,0.00,,,0.00,WUHU216HW,2013-05-20 13:49:00,
2013-05-20 09:52:00,71.1,66.7,29.98,NE,53,1.5,2.9,86,0.00,,,0.00,WUHU216HW,2013-05-20 13:52:00,
2013-05-20 09:53:00,71.1,66.7,29.98,NE,53,1.5,2.9,86,0.00,,,0.00,WUHU216HW,2013-05-20 13:53:00,
2013-05-20 09:54:00,71.5,67.1,29.98,ESE,114,2.1,3.1,86,0.00,,,0.00,WUHU216HW,2013-05-20 13:54:00,
2013-05-20 09:55:00,71.5,67.1,29.98,ESE,114,2.1,3.1,86,0.00,,,0.00,WUHU216HW,2013-05-20 13:55:00,
2013-05-20 09:57:00,71.6,66.5,29.97,NNE,23,4.0,4.0,84,0.00,,,0.00,WUHU216HW,2013-05-20 13:57:00,
2013-05-20 09:58:00,71.6,66.5,29.97,NNE,23,4.0,4.0,84,0.00,,,0.00,WUHU216HW,2013-05-20 13:58:00,
2013-05-20 10:00:00,71.5,66.3,29.97,ESE,113,3.4,4.0,84,0.00,,,0.00,WUHU216HW,2013-05-20 14:00:00,
2013-05-20 10:01:00,71.5,66.3,29.97,East,90,2.5,4.0,84,0.00,,,0.00,WUHU216HW,2013-05-20 14:01:00,
2013-05-20 10:03:00,71.6,66.9,29.97,East,86,1.5,4.0,85,0.00,,,0.00,WUHU216HW,2013-05-20 14:03:00,
2013-05-20 10:05:00,72.2,67.4,29.98,ESE,105,2.6,4.0,85,0.00,,,0.00,WUHU216HW,2013-05-20 14:05:00,
2013-05-20 10:06:00,72.4,67.6,29.97,ESE,114,1.7,4.0,85,0.00,,,0.00,WUHU216HW,2013-05-20 14:06:00,
2013-05-20 10:09:00,72.7,67.6,29.97,SSW,203,2.7,3.4,84,0.00,,,0.00,WUHU216HW,2013-05-20 14:09:00,
2013-05-20 10:10:00,73.1,68.3,29.97,SSE,160,2.6,3.4,85,0.00,,,0.00,WUHU216HW,2013-05-20 14:10:00,
2013-05-20 10:11:00,73.1,68.3,29.97,SE,135,4.9,4.9,85,0.00,,,0.00,WUHU216HW,2013-05-20 14:11:00,
2013-05-20 10:12:00,73.1,68.3,29.97,SE,135,4.9,4.9,85,0.00,,,0.00,WUHU216HW,2013-05-20 14:12:00,
2013-05-20 10:15:00,73.4,68.7,29.98,SSE,158,3.4,4.9,85,0.00,,,0.00,WUHU216HW,2013-05-20 14:15:00,
2013-05-20 10:16:00,73.6,68.5,29.98,SE,130,3.0,4.9,84,0.00,,,0.00,WUHU216HW,2013-05-20 14:16:00,
2013-05-20 10:18:00,74.0,68.9,29.98,SE,135,1.9,4.9,84,0.00,,,0.00,WUHU216HW,2013-05-20 14:18:00,
2013-05-20 10:20:00,74.3,69.2,29.98,SSE,158,2.9,4.9,84,0.00,,,0.00,WUHU216HW,2013-05-20 14:20:00,
2013-05-20 10:21:00,74.5,69.0,29.98,SSE,167,2.5,3.8,83,0.00,,,0.00,WUHU216HW,2013-05-20 14:21:00,
2013-05-20 10:22:00,74.5,69.0,29.98,SSW,203,2.0,3.8,83,0.00,,,0.00,WUHU216HW,2013-05-20 14:22:00,
2013-05-20 10:23:00,74.5,69.0,29.98,SSW,203,1.2,3.8,83,0.00,,,0.00,WUHU216HW,2013-05-20 14:23:00,
2013-05-20 10:25:00,74.7,69.2,29.97,NE,45,2.0,3.8,83,0.00,,,0.00,WUHU216HW,2013-05-20 14:25:00,
2013-05-20 10:26:00,74.7,68.2,29.97,ENE,68,2.5,2.9,80,0.00,,,0.00,WUHU216HW,2013-05-20 14:26:00,
2013-05-20 10:29:00,74.3,68.2,29.97,ENE,68,2.6,2.9,81,0.00,,,0.00,WUHU216HW,2013-05-20 14:29:00,
2013-05-20 10:31:00,73.8,67.3,29.97,ESE,113,4.3,4.3,80,0.00,,,0.00,WUHU216HW,2013-05-20 14:31:00,
2013-05-20 10:32:00,73.8,67.3,29.97,East,83,3.9,4.3,80,0.00,,,0.00,WUHU216HW,2013-05-20 14:32:00,
2013-05-20 10:34:00,73.6,67.1,29.97,ENE,68,3.6,4.3,80,0.00,,,0.00,WUHU216HW,2013-05-20 14:34:00,
2013-05-20 10:37:00,73.8,67.7,29.98,NE,45,2.9,4.3,81,0.00,,,0.00,WUHU216HW,2013-05-20 14:37:00,
2013-05-20 10:38:00,74.0,67.9,29.97,ESE,113,4.7,4.7,81,0.00,,,0.00,WUHU216HW,2013-05-20 14:38:00,
2013-05-20 10:39:00,74.0,67.9,29.97,SE,135,4.7,4.7,81,0.00,,,0.00,WUHU216HW,2013-05-20 14:39:00,
2013-05-20 10:42:00,74.5,68.4,29.97,ESE,123,2.0,4.7,81,0.00,,,0.00,WUHU216HW,2013-05-20 14:42:00,
2013-05-20 10:43:00,74.5,68.4,29.97,SE,144,1.5,4.7,81,0.00,,,0.00,WUHU216HW,2013-05-20 14:43:00,
2013-05-20 10:44:00,75.1,69.0,29.97,East,90,2.2,4.7,81,0.00,,,0.00,WUHU216HW,2013-05-20 14:44:00,
2013-05-20 10:45:00,75.1,69.0,29.97,SE,135,3.8,4.7,81,0.00,,,0.00,WUHU216HW,2013-05-20 14:45:00,
2013-05-20 10:46:00,75.2,69.1,29.97,ESE,121,2.8,4.7,81,0.00,,,0.00,WUHU216HW,2013-05-20 14:46:00,
2013-05-20 10:48:00,75.4,69.3,29.98,SSE,158,2.5,4.7,81,0.00,,,0.00,WUHU216HW,2013-05-20 14:48:00,
2013-05-20 10:50:00,75.8,68.5,29.98,ENE,68,5.4,5.4,78,0.00,,,0.00,WUHU216HW,2013-05-20 14:50:00,
2013-05-20 10:52:00,75.6,68.0,29.97,NE,56,3.0,5.4,77,0.00,,,0.00,WUHU216HW,2013-05-20 14:52:00,
2013-05-20 10:53:00,75.6,68.0,29.97,NE,56,3.0,5.4,77,0.00,,,0.00,WUHU216HW,2013-05-20 14:53:00,
2013-05-20 10:55:00,75.2,68.0,29.97,SSE,163,2.2,5.4,78,0.00,,,0.00,WUHU216HW,2013-05-20 14:55:00,
2013-05-20 10:56:00,75.2,68.0,29.97,SSE,163,2.2,5.4,78,0.00,,,0.00,WUHU216HW,2013-05-20 14:56:00,
2013-05-20 10:58:00,75.4,68.5,29.97,East,90,0.4,5.4,79,0.00,,,0.00,WUHU216HW,2013-05-20 14:58:00,
2013-05-20 11:00:00,75.6,68.0,29.97,NNE,29,1.6,4.3,77,0.00,,,0.00,WUHU216HW,2013-05-20 15:00:00,
2013-05-20 11:03:00,75.6,68.3,29.97,ENE,68,2.9,2.9,78,0.00,,,0.00,WUHU216HW,2013-05-20 15:03:00,
2013-05-20 11:04:00,75.8,68.5,29.97,ENE,61,2.0,2.9,78,0.00,,,0.00,WUHU216HW,2013-05-20 15:04:00,
2013-05-20 11:05:00,75.8,68.5,29.97,SSE,158,4.0,4.0,78,0.00,,,0.00,WUHU216HW,2013-05-20 15:05:00,
2013-05-20 11:08:00,76.5,69.1,29.97,SE,128,2.9,4.0,78,0.00,,,0.00,WUHU216HW,2013-05-20 15:08:00,
2013-05-20 11:09:00,76.7,69.3,29.97,ESE,113,2.9,4.0,78,0.00,,,0.00,WUHU216HW,2013-05-20 15:09:00,
2013-05-20 11:10:00,77.0,69.7,29.97,ESE,113,2.3,4.0,78,0.00,,,0.00,WUHU216HW,2013-05-20 15:10:00,
2013-05-20 11:11:00,77.2,69.9,29.97,South,180,2.5,4.0,78,0.00,,,0.00,WUHU216HW,2013-05-20 15:11:00,
2013-05-20 11:14:00,77.9,70.5,29.97,SE,135,2.5,4.0,78,0.00,,,0.00,WUHU216HW,2013-05-20 15:14:00,
2013-05-20 11:15:00,77.9,70.5,29.97,SE,135,2.5,4.0,78,0.00,,,0.00,WUHU216HW,2013-05-20 15:15:00,
2013-05-20 11:16:00,78.3,70.8,29.97,SSE,158,2.5,4.0,78,0.00,,,0.00,WUHU216HW,2013-05-20 15:16:00,
2013-05-20 11:17:00,78.7,70.8,29.97,SW,225,3.4,3.4,77,0.00,,,0.00,WUHU216HW,2013-05-20 15:17:00,
2013-05-20 11:19:00,78.7,70.0,29.97,East,84,3.7,4.7,75,0.00,,,0.00,WUHU216HW,2013-05-20 15:19:00,
2013-05-20 11:20:00,78.7,70.0,29.97,South,180,4.0,4.7,75,0.00,,,0.00,WUHU216HW,2013-05-20 15:20:00,
2013-05-20 11:22:00,78.8,70.2,29.97,SE,135,2.7,4.7,75,0.00,,,0.00,WUHU216HW,2013-05-20 15:22:00,
2013-05-20 11:23:00,78.7,70.0,29.97,SE,130,2.3,4.7,75,0.00,,,0.00,WUHU216HW,2013-05-20 15:23:00,
2013-05-20 11:25:00,79.0,70.4,29.97,SSE,151,1.8,4.7,75,0.00,,,0.00,WUHU216HW,2013-05-20 15:25:00,
2013-05-20 11:28:00,79.4,70.7,29.98,ESE,113,2.7,4.0,75,0.00,,,0.00,WUHU216HW,2013-05-20 15:28:00,
2013-05-20 11:30:00,79.6,70.9,29.97,ESE,121,3.0,3.8,75,0.00,,,0.00,WUHU216HW,2013-05-20 15:30:00,
2013-05-20 11:34:00,79.6,70.1,29.97,ENE,68,2.9,3.8,73,0.00,,,0.00,WUHU216HW,2013-05-20 15:34:00,
2013-05-20 11:35:00,79.6,70.1,29.97,ENE,76,2.3,3.8,73,0.00,,,0.00,WUHU216HW,2013-05-20 15:35:00,
2013-05-20 11:36:00,79.6,70.1,29.97,ENE,76,2.3,3.8,73,0.00,,,0.00,WUHU216HW,2013-05-20 15:36:00,
2013-05-20 11:39:00,79.6,70.1,29.97,South,188,2.3,2.9,73,0.00,,,0.00,WUHU216HW,2013-05-20 15:39:00,
2013-05-20 11:40:00,79.4,70.4,29.97,ESE,113,3.4,3.4,74,0.00,,,0.00,WUHU216HW,2013-05-20 15:40:00,
2013-05-20 11:41:00,79.6,70.1,29.97,East,90,4.0,4.0,73,0.00,,,0.00,WUHU216HW,2013-05-20 15:41:00,
2013-05-20 11:42:00,79.6,70.1,29.97,SE,134,3.9,4.0,73,0.00,,,0.00,WUHU216HW,2013-05-20 15:42:00,
2013-05-20 11:45:00,79.9,70.9,29.98,South,178,2.8,4.0,74,0.00,,,0.00,WUHU216HW,2013-05-20 15:45:00,
2013-05-20 11:46:00,80.3,71.3,29.97,South,189,1.5,4.0,74,0.00,,,0.00,WUHU216HW,2013-05-20 15:46:00,
2013-05-20 11:47:00,80.3,71.3,29.97,ESE,113,1.6,4.0,74,0.00,,,0.00,WUHU216HW,2013-05-20 15:47:00,
2013-05-20 11:50:00,80.8,71.4,29.97,ESE,113,1.8,4.0,73,0.00,,,0.00,WUHU216HW,2013-05-20 15:50:00,
2013-05-20 11:51:00,80.8,71.0,29.97,ESE,113,1.7,3.8,72,0.00,,,0.00,WUHU216HW,2013-05-20 15:51:00,
2013-05-20 11:52:00,80.8,71.0,29.97,SE,135,5.1,5.1,72,0.00,,,0.00,WUHU216HW,2013-05-20 15:52:00,
2013-05-20 11:53:00,80.8,71.0,29.97,SE,135,5.1,5.1,72,0.00,,,0.00,WUHU216HW,2013-05-20 15:53:00,
2013-05-20 11:56:00,80.8,70.6,29.97,SW,225,2.6,5.1,71,0.00,,,0.00,WUHU216HW,2013-05-20 15:56:00,
2013-05-20 11:57:00,81.0,70.7,29.97,SSW,197,4.5,5.6,71,0.00,,,0.00,WUHU216HW,2013-05-20 15:57:00,
2013-05-20 11:58:00,81.0,70.7,29.97,SE,135,3.4,5.6,71,0.00,,,0.00,WUHU216HW,2013-05-20 15:58:00,
2013-05-20 11:59:00,81.0,70.7,29.97,SE,135,3.4,5.6,71,0.00,,,0.00,WUHU216HW,2013-05-20 15:59:00,
2013-05-20 12:02:00,81.2,70.9,29.97,South,180,3.8,5.6,71,0.00,,,0.00,WUHU216HW,2013-05-20 16:02:00,
2013-05-20 12:03:00,81.4,71.1,29.97,SE,135,4.7,5.6,71,0.00,,,0.00,WUHU216HW,2013-05-20 16:03:00,
2013-05-20 12:04:00,81.5,71.3,29.97,SE,135,4.6,5.6,71,0.00,,,0.00,WUHU216HW,2013-05-20 16:04:00,
2013-05-20 12:07:00,81.7,71.0,29.97,SE,129,2.1,4.7,70,0.00,,,0.00,WUHU216HW,2013-05-20 16:07:00,
2013-05-20 12:08:00,81.7,71.0,29.97,SE,135,5.1,5.1,70,0.00,,,0.00,WUHU216HW,2013-05-20 16:08:00,
2013-05-20 12:09:00,81.7,71.0,29.97,SE,135,5.4,5.4,70,0.00,,,0.00,WUHU216HW,2013-05-20 16:09:00,
2013-05-20 12:10:00,81.7,70.6,29.97,SE,125,4.7,5.4,69,0.00,,,0.00,WUHU216HW,2013-05-20 16:10:00,
2013-05-20 12:14:00,81.9,71.2,29.97,ESE,113,3.1,5.4,70,0.00,,,0.00,WUHU216HW,2013-05-20 16:14:00,
2013-05-20 12:15:00,81.9,71.2,29.97,ESE,121,2.4,5.4,70,0.00,,,0.00,WUHU216HW,2013-05-20 16:15:00,
2013-05-20 12:16:00,81.9,71.2,29.97,SE,135,2.0,5.4,70,0.00,,,0.00,WUHU216HW,2013-05-20 16:16:00,
2013-05-20 12:22:00,82.4,72.1,29.97,NE,45,2.0,4.3,71,0.00,,,0.00,WUHU216HW,2013-05-20 16:22:00,
2013-05-20 12:23:00,82.4,71.6,29.97,SE,135,2.5,4.3,70,0.00,,,0.00,WUHU216HW,2013-05-20 16:23:00,
2013-05-20 12:24:00,82.4,71.6,29.97,SE,138,1.9,4.3,70,0.00,,,0.00,WUHU216HW,2013-05-20 16:24:00,
2013-05-20 12:28:00,82.8,71.6,29.97,SE,130,1.5,5.8,69,0.00,,,0.00,WUHU216HW,2013-05-20 16:28:00,
2013-05-20 12:29:00,82.8,71.6,29.97,WSW,256,2.2,5.8,69,0.00,,,0.00,WUHU216HW,2013-05-20 16:29:00,
2013-05-20 12:31:00,82.8,71.6,29.97,SE,135,1.3,5.8,69,0.00,,,0.00,WUHU216HW,2013-05-20 16:31:00,
2013-05-20 12:34:00,83.2,72.4,29.97,SSE,158,6.3,6.3,70,0.00,,,0.00,WUHU216HW,2013-05-20 16:34:00,
2013-05-20 12:35:00,83.3,72.1,29.97,SSE,167,4.0,6.3,69,0.00,,,0.00,WUHU216HW,2013-05-20 16:35:00,
2013-05-20 12:38:00,83.7,72.0,29.96,SSE,162,3.9,6.3,68,0.00,,,0.00,WUHU216HW,2013-05-20 16:38:00,
2013-05-20 12:40:00,83.7,72.0,29.96,SE,135,2.9,6.3,68,0.00,,,0.00,WUHU216HW,2013-05-20 16:40:00,
2013-05-20 12:42:00,83.9,72.2,29.96,WSW,253,2.5,6.3,68,0.00,,,0.00,WUHU216HW,2013-05-20 16:42:00,
2013-05-20 12:45:00,84.1,71.9,29.96,West,270,0.7,4.7,67,0.00,,,0.00,WUHU216HW,2013-05-20 16:45:00,
2013-05-20 12:46:00,84.1,72.4,29.96,WSW,248,1.8,4.7,68,0.00,,,0.00,WUHU216HW,2013-05-20 16:46:00,
2013-05-20 12:47:00,84.2,72.5,29.96,SSW,208,1.5,3.8,68,0.00,,,0.00,WUHU216HW,2013-05-20 16:47:00,
2013-05-20 12:48:00,84.4,72.7,29.96,SSE,158,1.8,3.8,68,0.00,,,0.00,WUHU216HW,2013-05-20 16:48:00,
2013-05-20 12:50:00,84.6,72.9,29.96,ESE,113,3.8,3.8,68,0.00,,,0.00,WUHU216HW,2013-05-20 16:50:00,
2013-05-20 12:51:00,85.0,72.8,29.96,ESE,113,4.7,4.7,67,0.00,,,0.00,WUHU216HW,2013-05-20 16:51:00,
2013-05-20 12:53:00,85.0,72.8,29.96,SE,135,4.0,4.7,67,0.00,,,0.00,WUHU216HW,2013-05-20 16:53:00,
2013-05-20 12:56:00,84.6,72.0,29.96,SSW,203,0.9,4.7,66,0.00,,,0.00,WUHU216HW,2013-05-20 16:56:00,
2013-05-20 12:57:00,84.2,71.6,29.96,SE,135,5.1,5.1,66,0.00,,,0.00,WUHU216HW,2013-05-20 16:57:00,
2013-05-20 12:59:00,84.1,71.9,29.95,SE,135,5.4,5.4,67,0.00,,,0.00,WUHU216HW,2013-05-20 16:59:00,
2013-05-20 13:01:00,84.1,71.9,29.95,ESE,117,3.3,5.4,67,0.00,,,0.00,WUHU216HW,2013-05-20 17:01:00,
2013-05-20 13:02:00,84.1,71.9,29.95,SSE,158,2.7,5.4,67,0.00,,,0.00,WUHU216HW,2013-05-20 17:02:00,
2013-05-20 13:03:00,84.2,72.1,29.95,SSE,149,2.2,5.4,67,0.00,,,0.00,WUHU216HW,2013-05-20 17:03:00,
2013-05-20 13:05:00,84.6,72.0,29.95,SE,135,1.8,5.4,66,0.00,,,0.00,WUHU216HW,2013-05-20 17:05:00,
2013-05-20 13:06:00,84.6,72.5,29.95,SE,135,1.3,5.4,67,0.00,,,0.00,WUHU216HW,2013-05-20 17:06:00,
2013-05-20 13:07:00,84.6,72.0,29.95,NE,45,1.1,5.4,66,0.00,,,0.00,WUHU216HW,2013-05-20 17:07:00,
2013-05-20 13:09:00,84.6,72.0,29.95,SSW,203,3.4,4.0,66,0.00,,,0.00,WUHU216HW,2013-05-20 17:09:00,
2013-05-20 13:11:00,84.2,71.6,29.95,SE,135,1.6,3.4,66,0.00,,,0.00,WUHU216HW,2013-05-20 17:11:00,
2013-05-20 13:12:00,84.1,71.5,29.95,SW,225,1.8,3.4,66,0.00,,,0.00,WUHU216HW,2013-05-20 17:12:00,
2013-05-20 13:14:00,84.1,71.9,29.95,SSE,164,1.5,3.4,67,0.00,,,0.00,WUHU216HW,2013-05-20 17:14:00,
2013-05-20 13:16:00,84.4,72.3,29.95,SSW,203,3.4,3.4,67,0.00,,,0.00,WUHU216HW,2013-05-20 17:16:00,
2013-05-20 13:17:00,84.4,72.3,29.95,South,180,2.6,3.4,67,0.00,,,0.00,WUHU216HW,2013-05-20 17:17:00,
2013-05-20 13:20:00,85.0,72.8,29.96,SE,135,2.0,3.4,67,0.00,,,0.00,WUHU216HW,2013-05-20 17:20:00,
2013-05-20 13:21:00,85.1,72.6,29.95,SE,135,4.9,4.9,66,0.00,,,0.00,WUHU216HW,2013-05-20 17:21:00,
2013-05-20 13:22:00,85.3,72.7,29.96,South,180,5.1,5.1,66,0.00,,,0.00,WUHU216HW,2013-05-20 17:22:00,
2013-05-20 13:23:00,85.5,72.4,29.95,South,174,3.4,5.1,65,0.00,,,0.00,WUHU216HW,2013-05-20 17:23:00,
2013-05-20 13:25:00,86.0,72.5,29.95,East,90,4.3,5.1,64,0.00,,,0.00,WUHU216HW,2013-05-20 17:25:00,
2013-05-20 13:26:00,85.9,71.4,29.95,ESE,103,3.1,5.1,62,0.00,,,0.00,WUHU216HW,2013-05-20 17:26:00,
2013-05-20 13:27:00,85.7,71.7,29.95,ESE,113,1.8,5.1,63,0.00,,,0.00,WUHU216HW,2013-05-20 17:27:00,
2013-05-20 13:29:00,85.5,71.9,29.95,SSE,157,2.9,5.1,64,0.00,,,0.00,WUHU216HW,2013-05-20 17:29:00,
2013-05-20 13:30:00,85.5,71.9,29.95,SSW,203,4.7,5.1,64,0.00,,,0.00,WUHU216HW,2013-05-20 17:30:00,
2013-05-20 13:31:00,85.3,71.7,29.95,SSW,199,2.5,5.1,64,0.00,,,0.00,WUHU216HW,2013-05-20 17:31:00,
2013-05-20 13:32:00,85.1,71.6,29.95,SSW,203,3.8,4.7,64,0.00,,,0.00,WUHU216HW,2013-05-20 17:32:00,
2013-05-20 13:35:00,85.0,71.5,29.96,West,270,2.9,4.7,64,0.00,,,0.00,WUHU216HW,2013-05-20 17:35:00,
2013-05-20 13:36:00,85.0,71.5,29.95,SE,135,4.0,4.7,64,0.00,,,0.00,WUHU216HW,2013-05-20 17:36:00,
2013-05-20 13:38:00,85.0,71.9,29.95,SSW,203,4.0,4.7,65,0.00,,,0.00,WUHU216HW,2013-05-20 17:38:00,
2013-05-20 13:40:00,85.0,71.9,29.95,ESE,117,2.1,4.0,65,0.00,,,0.00,WUHU216HW,2013-05-20 17:40:00,
2013-05-20 13:41:00,85.1,72.0,29.95,SW,225,1.8,4.0,65,0.00,,,0.00,WUHU216HW,2013-05-20 17:41:00,
2013-05-20 13:42:00,85.1,72.6,29.95,SSW,203,2.5,4.0,66,0.00,,,0.00,WUHU216HW,2013-05-20 17:42:00,
2013-05-20 13:43:00,85.3,72.7,29.95,SE,135,2.5,4.0,66,0.00,,,0.00,WUHU216HW,2013-05-20 17:43:00,
2013-05-20 13:46:00,85.5,71.5,29.95,SSE,164,4.3,4.5,63,0.00,,,0.00,WUHU216HW,2013-05-20 17:46:00,
2013-05-20 13:47:00,85.3,71.7,29.95,SSW,196,3.1,4.5,64,0.00,,,0.00,WUHU216HW,2013-05-20 17:47:00,
2013-05-20 13:48:00,85.3,72.2,29.95,SSE,154,1.9,4.5,65,0.00,,,0.00,WUHU216HW,2013-05-20 17:48:00,
2013-05-20 13:49:00,85.3,72.2,29.95,SSE,153,1.4,4.5,65,0.00,,,0.00,WUHU216HW,2013-05-20 17:49:00,
2013-05-20 13:51:00,85.1,71.6,29.95,SE,135,2.5,4.5,64,0.00,,,0.00,WUHU216HW,2013-05-20 17:51:00,
2013-05-20 13:53:00,85.3,72.2,29.95,SW,218,1.9,4.5,65,0.00,,,0.00,WUHU216HW,2013-05-20 17:53:00,
2013-05-20 13:54:00,85.5,72.4,29.95,SW,225,0.4,4.5,65,0.00,,,0.00,WUHU216HW,2013-05-20 17:54:00,
2013-05-20 13:55:00,85.5,72.4,29.95,NNW,338,1.6,4.0,65,0.00,,,0.00,WUHU216HW,2013-05-20 17:55:00,
2013-05-20 13:57:00,85.9,72.7,29.95,SSW,203,3.1,3.4,65,0.00,,,0.00,WUHU216HW,2013-05-20 17:57:00,
2013-05-20 13:59:00,85.9,72.3,29.95,SE,135,5.6,5.6,64,0.00,,,0.00,WUHU216HW,2013-05-20 17:59:00,
2013-05-20 14:00:00,85.7,71.7,29.95,SE,133,2.9,5.6,63,0.00,,,0.00,WUHU216HW,2013-05-20 18:00:00,
2013-05-20 14:03:00,85.5,71.0,29.95,West,270,1.3,5.6,62,0.00,,,0.00,WUHU216HW,2013-05-20 18:03:00,
2013-05-20 14:04:00,85.0,71.5,29.95,WSW,248,2.9,5.6,64,0.00,,,0.00,WUHU216HW,2013-05-20 18:04:00,
2013-05-20 14:05:00,85.0,71.5,29.95,WSW,238,1.9,5.6,64,0.00,,,0.00,WUHU216HW,2013-05-20 18:05:00,
2013-05-20 14:06:00,84.6,70.7,29.95,WSW,248,1.8,5.6,63,0.00,,,0.00,WUHU216HW,2013-05-20 18:06:00,
2013-05-20 14:07:00,84.6,71.1,29.95,WSW,248,1.1,5.6,64,0.00,,,0.00,WUHU216HW,2013-05-20 18:07:00,
2013-05-20 14:09:00,84.4,70.9,29.95,NNW,338,1.6,2.9,64,0.00,,,0.00,WUHU216HW,2013-05-20 18:09:00,
2013-05-20 14:10:00,84.4,71.4,29.95,NNE,31,1.5,2.9,65,0.00,,,0.00,WUHU216HW,2013-05-20 18:10:00,
2013-05-20 14:12:00,84.6,71.6,29.95,SSE,158,3.8,3.8,65,0.00,,,0.00,WUHU216HW,2013-05-20 18:12:00,
2013-05-20 14:13:00,84.6,71.6,29.95,SSE,158,4.3,4.3,65,0.00,,,0.00,WUHU216HW,2013-05-20 18:13:00,
2013-05-20 14:14:00,85.0,72.4,29.95,SSE,158,2.8,4.3,66,0.00,,,0.00,WUHU216HW,2013-05-20 18:14:00,
2013-05-20 14:15:00,85.1,72.6,29.95,South,180,3.1,4.3,66,0.00,,,0.00,WUHU216HW,2013-05-20 18:15:00,
2013-05-20 14:17:00,85.3,72.2,29.95,WSW,248,1.8,4.3,65,0.00,,,0.00,WUHU216HW,2013-05-20 18:17:00,
2013-05-20 14:19:00,85.3,72.2,29.95,SSW,203,3.5,4.3,65,0.00,,,0.00,WUHU216HW,2013-05-20 18:19:00,
2013-05-20 14:20:00,85.5,72.4,29.95,SE,135,4.3,4.3,65,0.00,,,0.00,WUHU216HW,2013-05-20 18:20:00,
2013-05-20 14:22:00,85.7,72.5,29.95,WSW,248,0.4,4.3,65,0.00,,,0.00,WUHU216HW,2013-05-20 18:22:00,
2013-05-20 14:24:00,85.7,72.5,29.95,SE,135,3.4,4.3,65,0.00,,,0.00,WUHU216HW,2013-05-20 18:24:00,
2013-05-20 14:25:00,85.7,73.0,29.95,SSE,167,2.6,4.3,66,0.00,,,0.00,WUHU216HW,2013-05-20 18:25:00,
2013-05-20 14:27:00,85.7,73.0,29.95,SSW,203,2.5,4.3,66,0.00,,,0.00,WUHU216HW,2013-05-20 18:27:00,
2013-05-20 14:28:00,85.7,73.0,29.95,SSW,203,2.5,4.3,66,0.00,,,0.00,WUHU216HW,2013-05-20 18:28:00,
2013-05-20 14:29:00,86.0,73.4,29.94,West,263,1.8,4.3,66,0.00,,,0.00,WUHU216HW,2013-05-20 18:29:00,
2013-05-20 14:30:00,86.0,72.9,29.94,ENE,68,2.0,3.4,65,0.00,,,0.00,WUHU216HW,2013-05-20 18:30:00,
2013-05-20 14:31:00,86.2,73.1,29.94,ESE,109,1.9,3.4,65,0.00,,,0.00,WUHU216HW,2013-05-20 18:31:00,
2013-05-20 14:33:00,86.4,72.8,29.94,West,270,3.1,3.4,64,0.00,,,0.00,WUHU216HW,2013-05-20 18:33:00,
2013-05-20 14:35:00,86.0,72.0,29.94,SSW,203,2.5,3.1,63,0.00,,,0.00,WUHU216HW,2013-05-20 18:35:00,
2013-05-20 14:36:00,85.9,72.3,29.94,SSE,158,3.1,3.1,64,0.00,,,0.00,WUHU216HW,2013-05-20 18:36:00,
2013-05-20 14:38:00,85.5,71.9,29.94,SE,135,2.2,3.1,64,0.00,,,0.00,WUHU216HW,2013-05-20 18:38:00,
2013-05-20 14:42:00,84.8,71.3,29.94,SW,233,1.3,3.1,64,0.00,,,0.00,WUHU216HW,2013-05-20 18:42:00,
2013-05-20 14:43:00,84.8,71.3,29.94,SE,135,1.3,3.1,64,0.00,,,0.00,WUHU216HW,2013-05-20 18:43:00,
2013-05-20 14:44:00,84.8,71.3,29.94,SE,135,1.3,3.1,64,0.00,,,0.00,WUHU216HW,2013-05-20 18:44:00,
2013-05-20 14:47:00,84.4,70.9,29.94,WSW,255,1.5,2.5,64,0.00,,,0.00,WUHU216HW,2013-05-20 18:47:00,
2013-05-20 14:48:00,84.4,70.9,29.94,SE,135,2.0,2.5,64,0.00,,,0.00,WUHU216HW,2013-05-20 18:48:00,
2013-05-20 14:49:00,84.2,70.7,29.94,SSE,156,1.9,2.5,64,0.00,,,0.00,WUHU216HW,2013-05-20 18:49:00,
2013-05-20 14:53:00,83.9,70.8,29.94,SSE,158,1.8,2.5,65,0.00,,,0.00,WUHU216HW,2013-05-20 18:53:00,
2013-05-20 14:54:00,83.9,70.8,29.94,SE,135,2.0,2.5,65,0.00,,,0.00,WUHU216HW,2013-05-20 18:54:00,
2013-05-20 14:55:00,83.9,70.8,29.94,SE,135,2.0,2.5,65,0.00,,,0.00,WUHU216HW,2013-05-20 18:55:00,
2013-05-20 14:58:00,84.2,71.6,29.94,NNW,338,0.2,2.0,66,0.00,,,0.00,WUHU216HW,2013-05-20 18:58:00,
2013-05-20 14:59:00,84.4,72.3,29.93,NNW,338,0.4,2.0,67,0.00,,,0.00,WUHU216HW,2013-05-20 18:59:00,
2013-05-20 15:00:00,84.6,72.0,29.93,WSW,248,1.6,2.0,66,0.00,,,0.00,WUHU216HW,2013-05-20 19:00:00,
2013-05-20 15:01:00,85.0,72.8,29.93,SW,225,1.8,2.0,67,0.00,,,0.00,WUHU216HW,2013-05-20 19:01:00,
2013-05-20 15:03:00,85.3,72.2,29.93,South,180,5.4,5.4,65,0.00,,,0.00,WUHU216HW,2013-05-20 19:03:00,
2013-05-20 15:04:00,85.3,72.2,29.93,SSE,159,5.1,5.4,65,0.00,,,0.00,WUHU216HW,2013-05-20 19:04:00,
2013-05-20 15:05:00,85.5,72.4,29.93,SSE,163,4.1,5.4,65,0.00,,,0.00,WUHU216HW,2013-05-20 19:05:00,
2013-05-20 15:06:00,85.7,72.1,29.93,SW,230,3.0,5.4,64,0.00,,,0.00,WUHU216HW,2013-05-20 19:06:00,
2013-05-20 15:09:00,86.0,72.5,29.93,NW,321,1.7,5.4,64,0.00,,,0.00,WUHU216HW,2013-05-20 19:09:00,
2013-05-20 15:10:00,86.2,72.2,29.93,SE,135,2.7,5.4,63,0.00,,,0.00,WUHU216HW,2013-05-20 19:10:00,
2013-05-20 15:11:00,86.6,72.5,29.93,South,175,2.3,5.4,63,0.00,,,0.00,WUHU216HW,2013-05-20 19:11:00,
2013-05-20 15:15:00,86.8,72.2,29.93,SSW,203,3.4,3.4,62,0.00,,,0.00,WUHU216HW,2013-05-20 19:15:00,
2013-05-20 15:16:00,86.8,72.6,29.93,SE,135,5.1,5.1,63,0.00,,,0.00,WUHU216HW,2013-05-20 19:16:00,
2013-05-20 15:18:00,86.4,71.8,29.93,SE,135,6.3,6.3,62,0.00,,,0.00,WUHU216HW,2013-05-20 19:18:00,
2013-05-20 15:20:00,86.0,71.0,29.93,SE,139,3.3,6.3,61,0.00,,,0.00,WUHU216HW,2013-05-20 19:20:00,
2013-05-20 15:21:00,85.5,71.0,29.93,SSW,203,1.6,6.3,62,0.00,,,0.00,WUHU216HW,2013-05-20 19:21:00,
2013-05-20 15:23:00,85.0,70.5,29.93,SSE,152,2.3,6.3,62,0.00,,,0.00,WUHU216HW,2013-05-20 19:23:00,
2013-05-20 15:26:00,84.6,70.7,29.93,SE,126,4.8,6.3,63,0.00,,,0.00,WUHU216HW,2013-05-20 19:26:00,
2013-05-20 15:27:00,84.6,70.7,29.93,SE,126,4.8,6.3,63,0.00,,,0.00,WUHU216HW,2013-05-20 19:27:00,
2013-05-20 15:28:00,84.1,70.1,29.93,SE,135,3.4,5.6,63,0.00,,,0.00,WUHU216HW,2013-05-20 19:28:00,
2013-05-20 15:32:00,84.4,70.9,29.93,South,180,3.4,5.6,64,0.00,,,0.00,WUHU216HW,2013-05-20 19:32:00,
2013-05-20 15:33:00,84.4,70.9,29.93,SSE,166,2.5,5.6,64,0.00,,,0.00,WUHU216HW,2013-05-20 19:33:00,
2013-05-20 15:34:00,84.6,71.1,29.93,SSE,158,4.7,5.6,64,0.00,,,0.00,WUHU216HW,2013-05-20 19:34:00,
2013-05-20 15:37:00,85.0,71.5,29.93,South,180,2.5,4.7,64,0.00,,,0.00,WUHU216HW,2013-05-20 19:37:00,
2013-05-20 15:38:00,85.3,71.7,29.92,SSE,159,2.3,4.7,64,0.00,,,0.00,WUHU216HW,2013-05-20 19:38:00,
2013-05-20 15:39:00,85.3,71.7,29.92,WSW,248,3.6,4.7,64,0.00,,,0.00,WUHU216HW,2013-05-20 19:39:00,
2013-05-20 15:40:00,85.3,71.3,29.92,West,270,5.4,5.4,63,0.00,,,0.00,WUHU216HW,2013-05-20 19:40:00,
2013-05-20 15:42:00,85.3,70.8,29.92,WNW,293,2.2,5.4,62,0.00,,,0.00,WUHU216HW,2013-05-20 19:42:00,
2013-05-20 15:44:00,85.3,70.4,29.92,WNW,285,1.7,5.4,61,0.00,,,0.00,WUHU216HW,2013-05-20 19:44:00,
2013-05-20 15:45:00,85.3,70.4,29.92,West,270,3.4,5.4,61,0.00,,,0.00,WUHU216HW,2013-05-20 19:45:00,
2013-05-20 15:47:00,85.3,70.4,29.92,WSW,248,2.0,5.4,61,0.00,,,0.00,WUHU216HW,2013-05-20 19:47:00,
2013-05-20 15:48:00,85.3,70.4,29.92,South,180,2.5,5.4,61,0.00,,,0.00,WUHU216HW,2013-05-20 19:48:00,
2013-05-20 15:49:00,85.3,70.4,29.92,South,180,2.5,5.4,61,0.00,,,0.00,WUHU216HW,2013-05-20 19:49:00,
2013-05-20 15:50:00,85.5,71.0,29.92,SE,135,2.0,3.8,62,0.00,,,0.00,WUHU216HW,2013-05-20 19:50:00,
2013-05-20 15:52:00,85.7,71.2,29.92,SSW,203,2.9,3.8,62,0.00,,,0.00,WUHU216HW,2013-05-20 19:52:00,
2013-05-20 15:54:00,85.7,70.8,29.92,WSW,248,1.6,3.1,61,0.00,,,0.00,WUHU216HW,2013-05-20 19:54:00,
2013-05-20 15:55:00,85.7,70.8,29.92,WSW,248,1.6,3.1,61,0.00,,,0.00,WUHU216HW,2013-05-20 19:55:00,
2013-05-20 15:56:00,85.7,70.2,29.92,WSW,248,3.4,3.4,60,0.00,,,0.00,WUHU216HW,2013-05-20 19:56:00,
2013-05-20 15:58:00,85.7,70.8,29.92,SSE,158,1.8,3.4,61,0.00,,,0.00,WUHU216HW,2013-05-20 19:58:00,
2013-05-20 15:59:00,85.5,70.6,29.92,SSE,153,1.1,3.4,61,0.00,,,0.00,WUHU216HW,2013-05-20 19:59:00,
2013-05-20 16:00:00,85.7,70.8,29.92,SW,225,1.3,3.4,61,0.00,,,0.00,WUHU216HW,2013-05-20 20:00:00,
2013-05-20 16:01:00,85.7,70.8,29.92,West,270,1.1,3.4,61,0.00,,,0.00,WUHU216HW,2013-05-20 20:01:00,
2013-05-20 16:02:00,85.7,70.8,29.92,WSW,248,1.3,3.4,61,0.00,,,0.00,WUHU216HW,2013-05-20 20:02:00,
2013-05-20 16:03:00,85.7,71.2,29.92,SSE,158,1.8,3.4,62,0.00,,,0.00,WUHU216HW,2013-05-20 20:03:00,
2013-05-20 16:04:00,85.7,71.2,29.92,SSE,168,1.7,3.4,62,0.00,,,0.00,WUHU216HW,2013-05-20 20:04:00,
2013-05-20 16:06:00,85.7,71.2,29.92,SSE,166,3.7,4.0,62,0.00,,,0.00,WUHU216HW,2013-05-20 20:06:00,
2013-05-20 16:07:00,85.7,70.8,29.92,South,185,2.8,4.0,61,0.00,,,0.00,WUHU216HW,2013-05-20 20:07:00,
2013-05-20 16:08:00,85.7,70.8,29.92,SSE,168,2.0,4.0,61,0.00,,,0.00,WUHU216HW,2013-05-20 20:08:00,
2013-05-20 16:09:00,85.7,70.2,29.92,South,180,3.8,4.0,60,0.00,,,0.00,WUHU216HW,2013-05-20 20:09:00,
2013-05-20 16:11:00,85.5,70.6,29.92,South,172,1.5,4.0,61,0.00,,,0.00,WUHU216HW,2013-05-20 20:11:00,
2013-05-20 16:12:00,85.5,70.1,29.92,SSW,203,3.8,4.0,60,0.00,,,0.00,WUHU216HW,2013-05-20 20:12:00,
2013-05-20 16:14:00,85.3,70.4,29.92,SSW,203,2.5,4.0,61,0.00,,,0.00,WUHU216HW,2013-05-20 20:14:00,
2013-05-20 16:15:00,85.3,70.4,29.92,SSW,207,1.6,3.8,61,0.00,,,0.00,WUHU216HW,2013-05-20 20:15:00,
2013-05-20 16:16:00,85.3,70.4,29.92,ESE,113,3.4,3.8,61,0.00,,,0.00,WUHU216HW,2013-05-20 20:16:00,
2013-05-20 16:18:00,85.3,70.4,29.92,ESE,113,2.8,3.8,61,0.00,,,0.00,WUHU216HW,2013-05-20 20:18:00,
2013-05-20 16:19:00,85.3,70.4,29.91,SSE,158,3.4,3.8,61,0.00,,,0.00,WUHU216HW,2013-05-20 20:19:00,
2013-05-20 16:21:00,85.1,70.7,29.91,WSW,248,1.1,3.8,62,0.00,,,0.00,WUHU216HW,2013-05-20 20:21:00,
2013-05-20 16:22:00,85.3,70.8,29.92,West,270,4.5,4.5,62,0.00,,,0.00,WUHU216HW,2013-05-20 20:22:00,
2013-05-20 16:25:00,85.3,70.4,29.91,SSW,207,2.3,4.5,61,0.00,,,0.00,WUHU216HW,2013-05-20 20:25:00,
2013-05-20 16:26:00,85.3,70.4,29.91,NW,315,1.8,4.5,61,0.00,,,0.00,WUHU216HW,2013-05-20 20:26:00,
2013-05-20 16:28:00,85.5,71.0,29.91,SSW,203,1.1,4.5,62,0.00,,,0.00,WUHU216HW,2013-05-20 20:28:00,
2013-05-20 16:29:00,85.7,71.2,29.91,South,180,1.8,4.5,62,0.00,,,0.00,WUHU216HW,2013-05-20 20:29:00,
2013-05-20 16:30:00,85.7,71.2,29.91,South,180,1.8,4.5,62,0.00,,,0.00,WUHU216HW,2013-05-20 20:30:00,
2013-05-20 16:32:00,85.9,71.4,29.91,SSW,208,1.5,4.5,62,0.00,,,0.00,WUHU216HW,2013-05-20 20:32:00,
2013-05-20 16:34:00,85.7,70.8,29.91,SW,215,1.0,3.4,61,0.00,,,0.00,WUHU216HW,2013-05-20 20:34:00,
2013-05-20 16:35:00,85.7,70.8,29.91,South,180,1.8,3.4,61,0.00,,,0.00,WUHU216HW,2013-05-20 20:35:00,
2013-05-20 16:36:00,85.7,70.8,29.91,South,180,1.8,3.4,61,0.00,,,0.00,WUHU216HW,2013-05-20 20:36:00,
2013-05-20 16:37:00,85.7,70.2,29.91,SSE,158,5.4,5.4,60,0.00,,,0.00,WUHU216HW,2013-05-20 20:37:00,
2013-05-20 16:40:00,85.5,70.6,29.91,WSW,248,1.6,5.4,61,0.00,,,0.00,WUHU216HW,2013-05-20 20:40:00,
2013-05-20 16:41:00,85.3,70.4,29.91,South,174,2.9,5.4,61,0.00,,,0.00,WUHU216HW,2013-05-20 20:41:00,
2013-05-20 16:42:00,85.3,70.4,29.91,South,174,2.9,5.4,61,0.00,,,0.00,WUHU216HW,2013-05-20 20:42:00,
2013-05-20 16:44:00,85.1,70.7,29.91,WSW,239,1.5,5.4,62,0.00,,,0.00,WUHU216HW,2013-05-20 20:44:00,
2013-05-20 16:45:00,85.1,70.2,29.91,SW,225,2.2,5.4,61,0.00,,,0.00,WUHU216HW,2013-05-20 20:45:00,
2013-05-20 16:47:00,85.0,70.0,29.91,WSW,247,1.5,3.6,61,0.00,,,0.00,WUHU216HW,2013-05-20 20:47:00,
2013-05-20 16:50:00,85.0,69.6,29.90,SSE,158,4.3,5.1,60,0.00,,,0.00,WUHU216HW,2013-05-20 20:50:00,
2013-05-20 16:52:00,84.8,69.8,29.90,South,180,4.7,5.1,61,0.00,,,0.00,WUHU216HW,2013-05-20 20:52:00,
2013-05-20 16:55:00,84.6,69.8,29.90,South,180,2.3,5.1,61,0.00,,,0.00,WUHU216HW,2013-05-20 20:55:00,
2013-05-20 16:57:00,84.6,69.8,29.90,West,270,1.1,5.1,61,0.00,,,0.00,WUHU216HW,2013-05-20 20:57:00,
2013-05-20 16:58:00,84.6,69.8,29.90,West,270,1.1,4.7,61,0.00,,,0.00,WUHU216HW,2013-05-20 20:58:00,
2013-05-20 17:01:00,84.6,69.8,29.90,South,180,3.4,4.7,61,0.00,,,0.00,WUHU216HW,2013-05-20 21:01:00,
2013-05-20 17:02:00,84.6,69.8,29.90,SSW,203,3.6,4.7,61,0.00,,,0.00,WUHU216HW,2013-05-20 21:02:00,
2013-05-20 17:03:00,84.6,69.8,29.90,SSW,203,4.0,4.7,61,0.00,,,0.00,WUHU216HW,2013-05-20 21:03:00,
2013-05-20 17:04:00,84.6,69.8,29.90,South,189,2.9,4.0,61,0.00,,,0.00,WUHU216HW,2013-05-20 21:04:00,
2013-05-20 17:06:00,84.6,69.8,29.90,SSE,165,4.4,5.8,61,0.00,,,0.00,WUHU216HW,2013-05-20 21:06:00,
2013-05-20 17:08:00,84.4,69.1,29.90,South,181,2.6,5.8,60,0.00,,,0.00,WUHU216HW,2013-05-20 21:08:00,
2013-05-20 17:09:00,84.2,69.4,29.90,SW,222,1.1,5.8,61,0.00,,,0.00,WUHU216HW,2013-05-20 21:09:00,
2013-05-20 17:10:00,84.2,69.4,29.90,SSW,203,1.1,5.8,61,0.00,,,0.00,WUHU216HW,2013-05-20 21:10:00,
2013-05-20 17:17:00,83.9,69.0,29.90,SE,135,1.6,1.6,61,0.00,,,0.00,WUHU216HW,2013-05-20 21:17:00,
2013-05-20 17:18:00,83.9,69.0,29.90,ESE,113,2.5,2.5,61,0.00,,,0.00,WUHU216HW,2013-05-20 21:18:00,
2013-05-20 17:22:00,83.9,69.0,29.90,West,270,2.9,2.9,61,0.00,,,0.00,WUHU216HW,2013-05-20 21:22:00,
2013-05-20 17:23:00,83.9,69.0,29.90,West,270,2.9,2.9,61,0.00,,,0.00,WUHU216HW,2013-05-20 21:23:00,
2013-05-20 17:28:00,83.9,69.0,29.90,West,270,2.9,2.9,61,0.00,,,0.00,WUHU216HW,2013-05-20 21:28:00,
2013-05-20 17:29:00,83.9,69.0,29.90,West,270,2.9,2.9,61,0.00,,,0.00,WUHU216HW,2013-05-20 21:29:00,
2013-05-20 17:50:00,83.2,68.8,29.90,SW,225,3.1,3.1,62,0.00,,,0.00,WUHU216HW,2013-05-20 21:50:00,
2013-05-20 17:51:00,83.2,68.8,29.90,SW,225,3.1,3.1,62,0.00,,,0.00,WUHU216HW,2013-05-20 21:51:00,
2013-05-20 17:52:00,83.0,68.1,29.90,SE,135,1.1,3.1,61,0.00,,,0.00,WUHU216HW,2013-05-20 21:52:00,
2013-05-20 17:55:00,82.8,67.5,29.90,SE,135,2.0,3.1,60,0.00,,,0.00,WUHU216HW,2013-05-20 21:55:00,
2013-05-20 17:56:00,82.8,67.5,29.90,SSE,158,2.2,3.1,60,0.00,,,0.00,WUHU216HW,2013-05-20 21:56:00,
2013-05-20 17:57:00,82.8,67.5,29.90,SSE,158,2.2,3.1,60,0.00,,,0.00,WUHU216HW,2013-05-20 21:57:00,
2013-05-20 17:58:00,82.8,67.5,29.90,SSE,158,2.1,3.1,60,0.00,,,0.00,WUHU216HW,2013-05-20 21:58:00,
2013-05-20 18:01:00,82.6,67.8,29.90,SSE,156,2.9,4.0,61,0.00,,,0.00,WUHU216HW,2013-05-20 22:01:00,
2013-05-20 18:02:00,82.6,67.8,29.90,WSW,248,1.8,4.0,61,0.00,,,0.00,WUHU216HW,2013-05-20 22:02:00,
2013-05-20 18:03:00,82.4,68.0,29.90,SE,135,4.7,4.7,62,0.00,,,0.00,WUHU216HW,2013-05-20 22:03:00,
2013-05-20 18:04:00,82.4,68.0,29.90,SE,136,2.4,4.7,62,0.00,,,0.00,WUHU216HW,2013-05-20 22:04:00,
2013-05-20 18:06:00,82.3,67.9,29.90,NW,315,0.9,4.7,62,0.00,,,0.00,WUHU216HW,2013-05-20 22:06:00,
2013-05-20 18:07:00,82.3,67.9,29.90,ENE,68,0.9,4.7,62,0.00,,,0.00,WUHU216HW,2013-05-20 22:07:00,
2013-05-20 18:08:00,82.3,67.9,29.90,ENE,78,0.6,4.7,62,0.00,,,0.00,WUHU216HW,2013-05-20 22:08:00,
2013-05-20 18:09:00,82.3,67.9,29.90,SSE,158,1.1,4.7,62,0.00,,,0.00,WUHU216HW,2013-05-20 22:09:00,
2013-05-20 18:10:00,82.3,67.9,29.90,SSW,203,1.1,4.7,62,0.00,,,0.00,WUHU216HW,2013-05-20 22:10:00,
2013-05-20 18:12:00,82.3,67.9,29.89,SSW,203,4.3,4.7,62,0.00,,,0.00,WUHU216HW,2013-05-20 22:12:00,
2013-05-20 18:15:00,82.1,67.7,29.89,SSE,163,1.5,4.3,62,0.00,,,0.00,WUHU216HW,2013-05-20 22:15:00,
2013-05-20 18:16:00,82.1,67.7,29.89,SSE,163,1.5,4.3,62,0.00,,,0.00,WUHU216HW,2013-05-20 22:16:00,
2013-05-20 18:18:00,82.1,67.7,29.89,WSW,248,1.1,4.3,62,0.00,,,0.00,WUHU216HW,2013-05-20 22:18:00,
2013-05-20 18:20:00,82.1,67.7,29.89,WSW,248,2.9,4.3,62,0.00,,,0.00,WUHU216HW,2013-05-20 22:20:00,
2013-05-20 18:21:00,82.1,67.7,29.89,SW,216,2.3,4.3,62,0.00,,,0.00,WUHU216HW,2013-05-20 22:21:00,
2013-05-20 18:23:00,81.9,67.6,29.89,East,90,0.4,2.9,62,0.00,,,0.00,WUHU216HW,2013-05-20 22:23:00,
2013-05-20 18:26:00,81.7,67.4,29.89,SSE,158,3.6,3.6,62,0.00,,,0.00,WUHU216HW,2013-05-20 22:26:00,
2013-05-20 18:27:00,81.7,67.4,29.89,SE,135,1.8,3.6,62,0.00,,,0.00,WUHU216HW,2013-05-20 22:27:00,
2013-05-20 18:29:00,81.7,67.4,29.89,SSW,203,3.1,3.6,62,0.00,,,0.00,WUHU216HW,2013-05-20 22:29:00,
2013-05-20 18:30:00,81.7,67.4,29.89,South,188,2.3,3.6,62,0.00,,,0.00,WUHU216HW,2013-05-20 22:30:00,
2013-05-20 18:32:00,81.7,67.4,29.89,SW,225,1.1,3.6,62,0.00,,,0.00,WUHU216HW,2013-05-20 22:32:00,
2013-05-20 18:33:00,81.7,67.4,29.89,SSE,158,1.6,3.6,62,0.00,,,0.00,WUHU216HW,2013-05-20 22:33:00,
2013-05-20 18:34:00,81.5,67.7,29.89,East,90,1.8,3.6,63,0.00,,,0.00,WUHU216HW,2013-05-20 22:34:00,
2013-05-20 18:35:00,81.5,67.7,29.89,SE,136,1.5,3.1,63,0.00,,,0.00,WUHU216HW,2013-05-20 22:35:00,
2013-05-20 18:36:00,81.5,67.7,29.89,SE,136,1.5,3.1,63,0.00,,,0.00,WUHU216HW,2013-05-20 22:36:00,
2013-05-20 18:38:00,81.4,67.5,29.89,SSW,203,0.9,3.1,63,0.00,,,0.00,WUHU216HW,2013-05-20 22:38:00,
2013-05-20 18:39:00,81.4,67.5,29.89,South,180,2.0,2.0,63,0.00,,,0.00,WUHU216HW,2013-05-20 22:39:00,
2013-05-20 18:40:00,81.4,67.5,29.89,South,190,1.8,2.0,63,0.00,,,0.00,WUHU216HW,2013-05-20 22:40:00,
2013-05-20 18:42:00,81.2,67.3,29.89,SW,227,1.0,2.0,63,0.00,,,0.00,WUHU216HW,2013-05-20 22:42:00,
2013-05-20 18:43:00,81.2,67.3,29.89,WSW,248,0.2,2.0,63,0.00,,,0.00,WUHU216HW,2013-05-20 22:43:00,
2013-05-20 18:44:00,81.0,67.2,29.89,SSW,203,2.0,2.0,63,0.00,,,0.00,WUHU216HW,2013-05-20 22:44:00,
2013-05-20 18:45:00,81.0,67.2,29.89,WSW,248,2.7,2.7,63,0.00,,,0.00,WUHU216HW,2013-05-20 22:45:00,
2013-05-20 18:48:00,81.0,66.8,29.89,SW,232,1.6,2.7,62,0.00,,,0.00,WUHU216HW,2013-05-20 22:48:00,
2013-05-20 18:49:00,81.0,66.8,29.89,SW,232,1.6,2.7,62,0.00,,,0.00,WUHU216HW,2013-05-20 22:49:00,
2013-05-20 18:50:00,80.8,67.1,29.88,WSW,243,1.4,2.7,63,0.00,,,0.00,WUHU216HW,2013-05-20 22:50:00,
2013-05-20 18:51:00,80.8,67.1,29.88,WSW,243,1.4,2.7,63,0.00,,,0.00,WUHU216HW,2013-05-20 22:51:00,
2013-05-20 18:53:00,80.6,66.4,29.88,South,180,2.7,2.7,62,0.00,,,0.00,WUHU216HW,2013-05-20 22:53:00,
2013-05-20 18:54:00,80.6,66.9,29.88,SSW,211,1.7,2.7,63,0.00,,,0.00,WUHU216HW,2013-05-20 22:54:00,
2013-05-20 18:55:00,80.6,66.9,29.88,SSW,204,2.2,2.7,63,0.00,,,0.00,WUHU216HW,2013-05-20 22:55:00,
2013-05-20 18:56:00,80.6,66.9,29.88,WSW,248,1.4,2.7,63,0.00,,,0.00,WUHU216HW,2013-05-20 22:56:00,
2013-05-20 18:59:00,80.5,67.1,29.88,West,263,1.0,2.7,64,0.00,,,0.00,WUHU216HW,2013-05-20 22:59:00,
2013-05-20 19:00:00,80.5,66.7,29.88,West,270,1.1,2.7,63,0.00,,,0.00,WUHU216HW,2013-05-20 23:00:00,
2013-05-20 19:01:00,80.5,67.1,29.88,SSE,158,1.8,2.7,64,0.00,,,0.00,WUHU216HW,2013-05-20 23:01:00,
2013-05-20 19:02:00,80.3,66.5,29.88,SSW,198,2.7,3.1,63,0.00,,,0.00,WUHU216HW,2013-05-20 23:02:00,
2013-05-20 19:04:00,80.3,66.5,29.88,SSE,166,1.3,3.1,63,0.00,,,0.00,WUHU216HW,2013-05-20 23:04:00,
2013-05-20 19:05:00,80.1,66.3,29.88,SW,225,0.4,3.1,63,0.00,,,0.00,WUHU216HW,2013-05-20 23:05:00,
2013-05-20 19:07:00,80.1,66.8,29.88,SSW,203,0.4,3.1,64,0.00,,,0.00,WUHU216HW,2013-05-20 23:07:00,
2013-05-20 19:09:00,79.9,66.6,29.88,West,270,0.2,3.1,64,0.00,,,0.00,WUHU216HW,2013-05-20 23:09:00,
2013-05-20 19:10:00,79.9,67.1,29.88,SSE,158,1.1,3.1,65,0.00,,,0.00,WUHU216HW,2013-05-20 23:10:00,
2013-05-20 19:13:00,79.7,66.9,29.88,SSW,209,1.3,1.8,65,0.00,,,0.00,WUHU216HW,2013-05-20 23:13:00,
2013-05-20 19:14:00,79.7,66.9,29.88,WSW,250,0.6,1.8,65,0.00,,,0.00,WUHU216HW,2013-05-20 23:14:00,
2013-05-20 19:15:00,79.7,66.9,29.88,North,3,0.3,1.8,65,0.00,,,0.00,WUHU216HW,2013-05-20 23:15:00,
2013-05-20 19:17:00,79.6,66.8,29.89,WSW,248,0.9,1.8,65,0.00,,,0.00,WUHU216HW,2013-05-20 23:17:00,
2013-05-20 19:18:00,79.6,66.8,29.88,SW,234,0.6,1.8,65,0.00,,,0.00,WUHU216HW,2013-05-20 23:18:00,
2013-05-20 19:20:00,79.6,66.8,29.88,SSW,203,0.9,1.8,65,0.00,,,0.00,WUHU216HW,2013-05-20 23:20:00,
2013-05-20 19:21:00,79.6,66.8,29.88,SSE,158,2.7,2.7,65,0.00,,,0.00,WUHU216HW,2013-05-20 23:21:00,
2013-05-20 19:23:00,79.6,67.1,29.88,SSW,203,1.3,2.7,66,0.00,,,0.00,WUHU216HW,2013-05-20 23:23:00,
2013-05-20 19:25:00,79.6,67.1,29.88,South,170,1.0,2.7,66,0.00,,,0.00,WUHU216HW,2013-05-20 23:25:00,
2013-05-20 19:26:00,79.6,67.1,29.88,SW,225,1.6,2.7,66,0.00,,,0.00,WUHU216HW,2013-05-20 23:26:00,
2013-05-20 19:27:00,79.4,67.1,29.88,SSW,205,1.5,2.7,66,0.00,,,0.00,WUHU216HW,2013-05-20 23:27:00,
2013-05-20 19:28:00,79.4,67.1,29.88,South,180,1.3,2.7,66,0.00,,,0.00,WUHU216HW,2013-05-20 23:28:00,
2013-05-20 19:30:00,79.2,66.9,29.88,WSW,248,1.5,2.7,66,0.00,,,0.00,WUHU216HW,2013-05-20 23:30:00,
2013-05-20 19:33:00,79.2,66.9,29.88,SW,221,1.0,1.8,66,0.00,,,0.00,WUHU216HW,2013-05-20 23:33:00,
2013-05-20 19:34:00,79.2,66.9,29.88,WSW,248,0.9,1.8,66,0.00,,,0.00,WUHU216HW,2013-05-20 23:34:00,
2013-05-20 19:36:00,79.0,66.7,29.88,SSW,203,1.1,1.8,66,0.00,,,0.00,WUHU216HW,2013-05-20 23:36:00,
2013-05-20 19:38:00,79.0,66.7,29.88,SSE,158,0.4,1.8,66,0.00,,,0.00,WUHU216HW,2013-05-20 23:38:00,
2013-05-20 19:39:00,79.0,66.7,29.88,SSE,158,0.4,1.8,66,0.00,,,0.00,WUHU216HW,2013-05-20 23:39:00,
2013-05-20 19:40:00,78.8,66.5,29.88,SSE,158,0.9,1.6,66,0.00,,,0.00,WUHU216HW,2013-05-20 23:40:00,
2013-05-20 19:41:00,78.8,66.5,29.88,SSE,158,0.9,1.6,66,0.00,,,0.00,WUHU216HW,2013-05-20 23:41:00,
2013-05-20 19:44:00,78.8,66.5,29.88,SW,225,0.4,1.1,66,0.00,,,0.00,WUHU216HW,2013-05-20 23:44:00,
2013-05-20 19:47:00,78.7,66.8,29.88,SSE,158,1.3,1.3,67,0.00,,,0.00,WUHU216HW,2013-05-20 23:47:00,
2013-05-20 19:48:00,78.7,66.8,29.88,WSW,248,0.0,1.3,67,0.00,,,0.00,WUHU216HW,2013-05-20 23:48:00,
2013-05-20 19:49:00,78.5,66.6,29.88,WSW,248,0.0,1.3,67,0.00,,,0.00,WUHU216HW,2013-05-20 23:49:00,
2013-05-20 19:50:00,78.5,66.6,29.88,WSW,248,0.2,1.3,67,0.00,,,0.00,WUHU216HW,2013-05-20 23:50:00,
2013-05-20 19:52:00,78.3,66.9,29.88,WSW,248,0.0,1.3,68,0.00,,,0.00,WUHU216HW,2013-05-20 23:52:00,
2013-05-20 19:53:00,78.1,66.7,29.88,WSW,248,0.0,1.3,68,0.00,,,0.00,WUHU216HW,2013-05-20 23:53:00,
2013-05-20 19:56:00,78.1,66.7,29.88,WSW,248,0.0,0.4,68,0.00,,,0.00,WUHU216HW,2013-05-20 23:56:00,
2013-05-20 19:58:00,77.8,66.3,29.88,WSW,248,0.0,0.4,68,0.00,,,0.00,WUHU216HW,2013-05-20 23:58:00,
2013-05-20 19:59:00,77.8,66.8,29.88,WSW,248,0.0,0.4,69,0.00,,,0.00,WUHU216HW,2013-05-20 23:59:00,
2013-05-20 20:01:00,77.6,66.6,29.88,WSW,248,0.0,0.0,69,0.00,,,0.00,WUHU216HW,2013-05-21 00:01:00,
2013-05-20 20:02:00,77.4,66.5,29.88,WSW,248,0.0,0.0,69,0.00,,,0.00,WUHU216HW,2013-05-21 00:02:00,
2013-05-20 20:04:00,77.2,66.8,29.88,WSW,248,0.0,0.0,70,0.00,,,0.00,WUHU216HW,2013-05-21 00:04:00,
2013-05-20 20:05:00,77.2,66.8,29.88,WSW,248,0.0,0.0,70,0.00,,,0.00,WUHU216HW,2013-05-21 00:05:00,
2013-05-20 20:06:00,77.0,66.6,29.88,WSW,248,0.0,0.0,70,0.00,,,0.00,WUHU216HW,2013-05-21 00:06:00,
2013-05-20 20:07:00,76.9,66.4,29.88,WSW,248,0.0,0.0,70,0.00,,,0.00,WUHU216HW,2013-05-21 00:07:00,
2013-05-20 20:09:00,76.7,66.6,29.88,WSW,248,0.0,0.0,71,0.00,,,0.00,WUHU216HW,2013-05-21 00:09:00,
2013-05-20 20:10:00,76.7,66.6,29.88,WSW,248,0.0,0.0,71,0.00,,,0.00,WUHU216HW,2013-05-21 00:10:00,
2013-05-20 20:11:00,76.5,66.4,29.88,WSW,248,0.0,0.0,71,0.00,,,0.00,WUHU216HW,2013-05-21 00:11:00,
2013-05-20 20:13:00,76.3,66.2,29.88,WSW,248,0.0,0.0,71,0.00,,,0.00,WUHU216HW,2013-05-21 00:13:00,
2013-05-20 20:15:00,76.1,66.1,29.88,WSW,248,0.0,0.0,71,0.00,,,0.00,WUHU216HW,2013-05-21 00:15:00,
2013-05-20 20:17:00,76.0,66.3,29.88,WSW,248,0.0,0.0,72,0.00,,,0.00,WUHU216HW,2013-05-21 00:17:00,
2013-05-20 20:18:00,75.8,66.2,29.88,WSW,248,0.2,0.2,72,0.00,,,0.00,WUHU216HW,2013-05-21 00:18:00,
2013-05-20 20:19:00,75.6,66.0,29.88,WSW,248,0.2,0.2,72,0.00,,,0.00,WUHU216HW,2013-05-21 00:19:00,
2013-05-20 20:20:00,75.6,66.0,29.88,WSW,248,0.0,0.2,72,0.00,,,0.00,WUHU216HW,2013-05-21 00:20:00,
2013-05-20 20:21:00,75.6,66.0,29.88,WSW,248,0.0,0.2,72,0.00,,,0.00,WUHU216HW,2013-05-21 00:21:00,
2013-05-20 20:23:00,75.2,66.0,29.88,WSW,248,0.2,0.2,73,0.00,,,0.00,WUHU216HW,2013-05-21 00:23:00,
2013-05-20 20:24:00,75.2,66.0,29.88,WSW,248,0.2,0.2,73,0.00,,,0.00,WUHU216HW,2013-05-21 00:24:00,
2013-05-20 20:25:00,75.2,66.0,29.88,WSW,248,0.0,0.2,73,0.00,,,0.00,WUHU216HW,2013-05-21 00:25:00,
2013-05-20 20:28:00,74.9,66.1,29.88,WSW,248,0.0,0.2,74,0.00,,,0.00,WUHU216HW,2013-05-21 00:28:00,
2013-05-20 20:29:00,74.7,65.9,29.88,WSW,248,0.0,0.2,74,0.00,,,0.00,WUHU216HW,2013-05-21 00:29:00,
2013-05-20 20:30:00,74.7,65.9,29.88,WSW,248,0.0,0.2,74,0.00,,,0.00,WUHU216HW,2013-05-21 00:30:00,
2013-05-20 20:33:00,74.5,66.1,29.88,WSW,248,0.0,0.0,75,0.00,,,0.00,WUHU216HW,2013-05-21 00:33:00,
2013-05-20 20:35:00,74.3,65.9,29.88,WSW,248,0.0,0.0,75,0.00,,,0.00,WUHU216HW,2013-05-21 00:35:00,
2013-05-20 20:36:00,74.3,65.9,29.88,WSW,248,0.0,0.0,75,0.00,,,0.00,WUHU216HW,2013-05-21 00:36:00,
2013-05-20 20:38:00,74.0,65.6,29.88,WSW,248,0.0,0.0,75,0.00,,,0.00,WUHU216HW,2013-05-21 00:38:00,
2013-05-20 20:40:00,73.8,65.8,29.88,WSW,248,0.0,0.0,76,0.00,,,0.00,WUHU216HW,2013-05-21 00:40:00,
2013-05-20 20:41:00,73.8,65.4,29.88,WSW,248,0.0,0.0,75,0.00,,,0.00,WUHU216HW,2013-05-21 00:41:00,
2013-05-20 20:42:00,73.8,65.4,29.88,WSW,248,0.0,0.0,75,0.00,,,0.00,WUHU216HW,2013-05-21 00:42:00,
2013-05-20 20:45:00,73.4,65.4,29.88,WSW,248,0.0,0.0,76,0.00,,,0.00,WUHU216HW,2013-05-21 00:45:00,
2013-05-20 20:48:00,73.3,65.3,29.88,WSW,248,0.0,0.0,76,0.00,,,0.00,WUHU216HW,2013-05-21 00:48:00,
2013-05-20 20:50:00,73.1,65.1,29.88,WSW,248,0.0,0.0,76,0.00,,,0.00,WUHU216HW,2013-05-21 00:50:00,
2013-05-20 20:52:00,72.9,65.3,29.88,WSW,248,0.0,0.0,77,0.00,,,0.00,WUHU216HW,2013-05-21 00:52:00,
2013-05-20 20:53:00,72.7,65.1,29.88,WSW,248,0.0,0.0,77,0.00,,,0.00,WUHU216HW,2013-05-21 00:53:00,
2013-05-20 20:54:00,72.7,65.5,29.88,WSW,248,0.0,0.0,78,0.00,,,0.00,WUHU216HW,2013-05-21 00:54:00,
2013-05-20 20:55:00,72.7,65.5,29.88,WSW,248,0.0,0.0,78,0.00,,,0.00,WUHU216HW,2013-05-21 00:55:00,
2013-05-20 20:56:00,72.4,64.7,29.88,WSW,248,0.0,0.0,77,0.00,,,0.00,WUHU216HW,2013-05-21 00:56:00,
2013-05-20 20:58:00,72.4,64.7,29.88,WSW,248,0.0,0.0,77,0.00,,,0.00,WUHU216HW,2013-05-21 00:58:00,
2013-05-20 20:59:00,72.2,64.5,29.88,WSW,248,0.0,0.0,77,0.00,,,0.00,WUHU216HW,2013-05-21 00:59:00,
2013-05-20 21:03:00,72.0,64.4,29.88,WSW,248,0.0,0.0,77,0.00,,,0.00,WUHU216HW,2013-05-21 01:03:00,
2013-05-20 21:05:00,71.8,64.6,29.88,WSW,248,0.0,0.0,78,0.00,,,0.00,WUHU216HW,2013-05-21 01:05:00,
2013-05-20 21:07:00,71.6,64.5,29.88,WSW,248,0.0,0.0,78,0.00,,,0.00,WUHU216HW,2013-05-21 01:07:00,
2013-05-20 21:09:00,71.6,64.8,29.88,WSW,248,0.0,0.0,79,0.00,,,0.00,WUHU216HW,2013-05-21 01:09:00,
2013-05-20 21:10:00,71.6,64.8,29.88,WSW,248,0.0,0.0,79,0.00,,,0.00,WUHU216HW,2013-05-21 01:10:00,
2013-05-20 21:12:00,71.5,64.6,29.88,WSW,248,0.0,0.0,79,0.00,,,0.00,WUHU216HW,2013-05-21 01:12:00,
2013-05-20 21:14:00,71.3,64.5,29.88,WSW,248,0.0,0.0,79,0.00,,,0.00,WUHU216HW,2013-05-21 01:14:00,
2013-05-20 21:15:00,71.3,64.5,29.88,WSW,248,0.0,0.0,79,0.00,,,0.00,WUHU216HW,2013-05-21 01:15:00,
2013-05-20 21:16:00,71.3,64.5,29.88,WSW,248,0.0,0.0,79,0.00,,,0.00,WUHU216HW,2013-05-21 01:16:00,
2013-05-20 21:18:00,71.1,64.6,29.88,WSW,248,0.0,0.0,80,0.00,,,0.00,WUHU216HW,2013-05-21 01:18:00,
2013-05-20 21:21:00,70.9,64.4,29.88,WSW,248,0.0,0.0,80,0.00,,,0.00,WUHU216HW,2013-05-21 01:21:00,
2013-05-20 21:22:00,70.9,64.4,29.88,WSW,248,0.0,0.0,80,0.00,,,0.00,WUHU216HW,2013-05-21 01:22:00,
2013-05-20 21:23:00,70.9,64.4,29.88,WSW,248,0.7,0.7,80,0.00,,,0.00,WUHU216HW,2013-05-21 01:23:00,
2013-05-20 21:27:00,70.9,64.4,29.87,WSW,248,0.4,0.7,80,0.00,,,0.00,WUHU216HW,2013-05-21 01:27:00,
2013-05-20 21:28:00,70.7,64.6,29.87,WSW,248,0.0,0.7,81,0.00,,,0.00,WUHU216HW,2013-05-21 01:28:00,
2013-05-20 21:32:00,70.6,64.5,29.87,WSW,248,0.0,0.7,81,0.00,,,0.00,WUHU216HW,2013-05-21 01:32:00,
2013-05-20 21:33:00,70.6,64.5,29.87,WSW,248,0.0,0.4,81,0.00,,,0.00,WUHU216HW,2013-05-21 01:33:00,
2013-05-20 21:34:00,70.6,64.5,29.87,WSW,248,0.0,0.4,81,0.00,,,0.00,WUHU216HW,2013-05-21 01:34:00,
2013-05-20 21:38:00,70.2,64.1,29.88,WSW,248,0.0,0.0,81,0.00,,,0.00,WUHU216HW,2013-05-21 01:38:00,
2013-05-20 21:39:00,70.2,64.1,29.88,WSW,248,0.0,0.0,81,0.00,,,0.00,WUHU216HW,2013-05-21 01:39:00,
2013-05-20 21:40:00,70.2,64.5,29.87,WSW,248,0.0,0.0,82,0.00,,,0.00,WUHU216HW,2013-05-21 01:40:00,
2013-05-20 21:44:00,69.8,64.1,29.87,WSW,248,0.0,0.0,82,0.00,,,0.00,WUHU216HW,2013-05-21 01:44:00,
2013-05-20 21:45:00,69.8,64.1,29.88,WSW,248,0.0,0.0,82,0.00,,,0.00,WUHU216HW,2013-05-21 01:45:00,
2013-05-20 21:47:00,69.8,64.1,29.88,WSW,248,0.0,0.0,82,0.00,,,0.00,WUHU216HW,2013-05-21 01:47:00,
2013-05-20 21:49:00,69.7,63.9,29.88,WSW,248,0.0,0.0,82,0.00,,,0.00,WUHU216HW,2013-05-21 01:49:00,
2013-05-20 21:50:00,69.7,63.9,29.88,WSW,248,0.0,0.0,82,0.00,,,0.00,WUHU216HW,2013-05-21 01:50:00,
2013-05-20 21:52:00,69.5,64.1,29.87,WSW,248,0.0,0.0,83,0.00,,,0.00,WUHU216HW,2013-05-21 01:52:00,
2013-05-20 21:53:00,69.5,64.1,29.87,WSW,248,0.0,0.0,83,0.00,,,0.00,WUHU216HW,2013-05-21 01:53:00,
2013-05-20 21:54:00,69.3,63.9,29.88,WSW,248,0.0,0.0,83,0.00,,,0.00,WUHU216HW,2013-05-21 01:54:00,
2013-05-20 21:55:00,69.3,63.9,29.88,WSW,248,0.0,0.0,83,0.00,,,0.00,WUHU216HW,2013-05-21 01:55:00,
2013-05-20 21:56:00,69.3,63.9,29.88,WSW,248,0.0,0.0,83,0.00,,,0.00,WUHU216HW,2013-05-21 01:56:00,
2013-05-20 21:57:00,69.1,63.7,29.88,WSW,248,0.0,0.0,83,0.00,,,0.00,WUHU216HW,2013-05-21 01:57:00,
2013-05-20 21:58:00,69.1,63.7,29.88,WSW,248,0.0,0.0,83,0.00,,,0.00,WUHU216HW,2013-05-21 01:58:00,
2013-05-20 22:00:00,68.9,63.5,29.88,WSW,248,0.0,0.0,83,0.00,,,0.00,WUHU216HW,2013-05-21 02:00:00,
2013-05-20 22:02:00,68.9,63.5,29.88,WSW,248,0.0,0.0,83,0.00,,,0.00,WUHU216HW,2013-05-21 02:02:00,
2013-05-20 22:03:00,68.8,63.7,29.88,WSW,248,0.0,0.0,84,0.00,,,0.00,WUHU216HW,2013-05-21 02:03:00,
2013-05-20 22:04:00,68.8,63.7,29.88,WSW,248,0.0,0.0,84,0.00,,,0.00,WUHU216HW,2013-05-21 02:04:00,
2013-05-20 22:05:00,68.8,63.7,29.88,WSW,248,0.0,0.0,84,0.00,,,0.00,WUHU216HW,2013-05-21 02:05:00,
2013-05-20 22:06:00,68.8,63.7,29.88,WSW,248,0.0,0.0,84,0.00,,,0.00,WUHU216HW,2013-05-21 02:06:00,
2013-05-20 22:07:00,68.8,63.7,29.88,WSW,248,0.0,0.0,84,0.00,,,0.00,WUHU216HW,2013-05-21 02:07:00,
2013-05-20 22:08:00,68.8,63.7,29.88,WSW,248,0.0,0.0,84,0.00,,,0.00,WUHU216HW,2013-05-21 02:08:00,
2013-05-20 22:09:00,68.8,63.7,29.88,WSW,248,0.0,0.0,84,0.00,,,0.00,WUHU216HW,2013-05-21 02:09:00,
2013-05-20 22:11:00,68.6,63.5,29.88,WSW,248,0.0,0.0,84,0.00,,,0.00,WUHU216HW,2013-05-21 02:11:00,
2013-05-20 22:12:00,68.6,63.5,29.88,WSW,248,0.0,0.0,84,0.00,,,0.00,WUHU216HW,2013-05-21 02:12:00,
2013-05-20 22:13:00,68.6,63.5,29.88,WSW,248,0.0,0.0,84,0.00,,,0.00,WUHU216HW,2013-05-21 02:13:00,
2013-05-20 22:15:00,68.4,63.4,29.88,WSW,248,0.0,0.0,84,0.00,,,0.00,WUHU216HW,2013-05-21 02:15:00,
2013-05-20 22:17:00,68.4,63.4,29.88,WSW,248,0.0,0.0,84,0.00,,,0.00,WUHU216HW,2013-05-21 02:17:00,
2013-05-20 22:18:00,68.4,63.4,29.88,WSW,248,0.0,0.0,84,0.00,,,0.00,WUHU216HW,2013-05-21 02:18:00,
2013-05-20 22:19:00,68.4,63.4,29.88,WSW,248,0.0,0.0,84,0.00,,,0.00,WUHU216HW,2013-05-21 02:19:00,
2013-05-20 22:21:00,68.2,63.6,29.88,WSW,248,0.0,0.0,85,0.00,,,0.00,WUHU216HW,2013-05-21 02:21:00,
2013-05-20 22:23:00,68.2,63.6,29.88,WSW,248,0.0,0.0,85,0.00,,,0.00,WUHU216HW,2013-05-21 02:23:00,
2013-05-20 22:24:00,68.0,63.4,29.88,WSW,248,0.0,0.0,85,0.00,,,0.00,WUHU216HW,2013-05-21 02:24:00,
2013-05-20 22:25:00,68.0,63.4,29.88,WSW,248,0.0,0.0,85,0.00,,,0.00,WUHU216HW,2013-05-21 02:25:00,
2013-05-20 22:26:00,68.0,63.4,29.88,WSW,248,0.0,0.0,85,0.00,,,0.00,WUHU216HW,2013-05-21 02:26:00,
2013-05-20 22:28:00,68.0,63.4,29.88,WSW,248,0.0,0.0,85,0.00,,,0.00,WUHU216HW,2013-05-21 02:28:00,
2013-05-20 22:30:00,67.9,63.2,29.88,WSW,248,0.0,0.0,85,0.00,,,0.00,WUHU216HW,2013-05-21 02:30:00,
2013-05-20 22:31:00,67.9,63.2,29.88,WSW,248,0.0,0.0,85,0.00,,,0.00,WUHU216HW,2013-05-21 02:31:00,
2013-05-20 22:33:00,67.7,63.0,29.88,WSW,248,0.0,0.0,85,0.00,,,0.00,WUHU216HW,2013-05-21 02:33:00,
2013-05-20 22:34:00,67.7,63.4,29.88,WSW,248,0.0,0.0,86,0.00,,,0.00,WUHU216HW,2013-05-21 02:34:00,
2013-05-20 22:36:00,67.7,63.4,29.88,WSW,248,0.0,0.0,86,0.00,,,0.00,WUHU216HW,2013-05-21 02:36:00,
2013-05-20 22:38:00,67.5,63.2,29.88,WSW,248,0.0,0.0,86,0.00,,,0.00,WUHU216HW,2013-05-21 02:38:00,
2013-05-20 22:40:00,67.5,63.2,29.88,WSW,248,0.0,0.0,86,0.00,,,0.00,WUHU216HW,2013-05-21 02:40:00,
2013-05-20 22:41:00,67.5,63.2,29.88,WSW,248,0.0,0.0,86,0.00,,,0.00,WUHU216HW,2013-05-21 02:41:00,
2013-05-20 22:42:00,67.3,63.0,29.88,WSW,248,0.0,0.0,86,0.00,,,0.00,WUHU216HW,2013-05-21 02:42:00,
2013-05-20 22:44:00,67.3,63.0,29.88,WSW,248,0.0,0.0,86,0.00,,,0.00,WUHU216HW,2013-05-21 02:44:00,
2013-05-20 22:45:00,67.3,63.0,29.88,WSW,248,0.0,0.0,86,0.00,,,0.00,WUHU216HW,2013-05-21 02:45:00,
2013-05-20 22:46:00,67.3,63.0,29.88,WSW,248,0.0,0.0,86,0.00,,,0.00,WUHU216HW,2013-05-21 02:46:00,
2013-05-20 22:47:00,67.3,63.0,29.88,WSW,248,0.0,0.0,86,0.00,,,0.00,WUHU216HW,2013-05-21 02:47:00,
2013-05-20 22:48:00,67.1,62.8,29.88,WSW,248,0.0,0.0,86,0.00,,,0.00,WUHU216HW,2013-05-21 02:48:00,
2013-05-20 22:50:00,67.0,62.9,29.88,WSW,248,0.0,0.0,87,0.00,,,0.00,WUHU216HW,2013-05-21 02:50:00,
2013-05-20 22:51:00,67.0,62.9,29.88,WSW,248,0.0,0.0,87,0.00,,,0.00,WUHU216HW,2013-05-21 02:51:00,
2013-05-20 22:52:00,67.0,62.9,29.89,WSW,248,0.0,0.0,87,0.00,,,0.00,WUHU216HW,2013-05-21 02:52:00,
2013-05-20 22:54:00,67.0,62.9,29.89,WSW,248,0.0,0.0,87,0.00,,,0.00,WUHU216HW,2013-05-21 02:54:00,
2013-05-20 22:56:00,67.0,62.9,29.88,WSW,248,0.0,0.0,87,0.00,,,0.00,WUHU216HW,2013-05-21 02:56:00,
2013-05-20 22:57:00,66.8,62.7,29.89,WSW,248,0.0,0.0,87,0.00,,,0.00,WUHU216HW,2013-05-21 02:57:00,
2013-05-20 22:58:00,66.8,62.7,29.89,WSW,248,0.0,0.0,87,0.00,,,0.00,WUHU216HW,2013-05-21 02:58:00,
2013-05-20 23:00:00,66.6,62.6,29.89,WSW,248,0.0,0.0,87,0.00,,,0.00,WUHU216HW,2013-05-21 03:00:00,
2013-05-20 23:02:00,66.6,62.6,29.89,WSW,248,0.0,0.0,87,0.00,,,0.00,WUHU216HW,2013-05-21 03:02:00,
2013-05-20 23:03:00,66.6,62.6,29.89,WSW,248,0.0,0.0,87,0.00,,,0.00,WUHU216HW,2013-05-21 03:03:00,
2013-05-20 23:05:00,66.4,62.4,29.88,WSW,248,0.7,0.7,87,0.00,,,0.00,WUHU216HW,2013-05-21 03:05:00,
2013-05-20 23:08:00,66.4,62.4,29.89,SE,135,1.1,1.1,87,0.00,,,0.00,WUHU216HW,2013-05-21 03:08:00,
2013-05-20 23:11:00,66.4,62.7,29.89,SE,135,0.9,1.1,88,0.00,,,0.00,WUHU216HW,2013-05-21 03:11:00,
2013-05-20 23:13:00,66.4,62.7,29.88,SE,135,0.7,1.1,88,0.00,,,0.00,WUHU216HW,2013-05-21 03:13:00,
2013-05-20 23:14:00,66.4,62.7,29.89,SE,135,0.9,1.1,88,0.00,,,0.00,WUHU216HW,2013-05-21 03:14:00,
2013-05-20 23:16:00,66.4,62.7,29.89,SE,135,0.7,1.1,88,0.00,,,0.00,WUHU216HW,2013-05-21 03:16:00,
2013-05-20 23:18:00,66.2,62.6,29.88,SE,135,0.0,0.9,88,0.00,,,0.00,WUHU216HW,2013-05-21 03:18:00,
2013-05-20 23:20:00,66.2,62.6,29.89,SE,135,0.0,0.9,88,0.00,,,0.00,WUHU216HW,2013-05-21 03:20:00,
2013-05-20 23:21:00,66.2,62.6,29.89,SE,135,0.0,0.9,88,0.00,,,0.00,WUHU216HW,2013-05-21 03:21:00,
2013-05-20 23:22:00,66.2,62.6,29.89,SE,135,0.0,0.9,88,0.00,,,0.00,WUHU216HW,2013-05-21 03:22:00,
2013-05-20 23:25:00,66.2,62.6,29.89,SE,135,0.0,0.0,88,0.00,,,0.00,WUHU216HW,2013-05-21 03:25:00,
2013-05-20 23:26:00,66.2,62.6,29.89,SE,135,0.0,0.0,88,0.00,,,0.00,WUHU216HW,2013-05-21 03:26:00,
2013-05-20 23:27:00,66.2,62.6,29.89,SE,135,0.0,0.0,88,0.00,,,0.00,WUHU216HW,2013-05-21 03:27:00,
2013-05-20 23:28:00,66.2,62.6,29.89,SE,135,0.0,0.0,88,0.00,,,0.00,WUHU216HW,2013-05-21 03:28:00,
2013-05-20 23:30:00,66.2,62.6,29.89,SE,135,0.0,0.0,88,0.00,,,0.00,WUHU216HW,2013-05-21 03:30:00,
2013-05-20 23:31:00,66.2,62.6,29.89,SE,135,0.0,0.0,88,0.00,,,0.00,WUHU216HW,2013-05-21 03:31:00,
2013-05-20 23:33:00,66.1,62.4,29.88,SE,135,0.0,0.0,88,0.00,,,0.00,WUHU216HW,2013-05-21 03:33:00,
2013-05-20 23:34:00,66.1,62.4,29.89,SE,135,0.0,0.0,88,0.00,,,0.00,WUHU216HW,2013-05-21 03:34:00,
2013-05-20 23:36:00,65.9,62.2,29.88,SE,135,0.0,0.0,88,0.00,,,0.00,WUHU216HW,2013-05-21 03:36:00,
2013-05-20 23:38:00,65.9,62.2,29.88,South,180,0.0,0.0,88,0.00,,,0.00,WUHU216HW,2013-05-21 03:38:00,
2013-05-20 23:39:00,65.9,62.2,29.89,SW,225,0.0,0.0,88,0.00,,,0.00,WUHU216HW,2013-05-21 03:39:00,
2013-05-20 23:41:00,65.9,62.2,29.89,SW,225,0.0,0.0,88,0.00,,,0.00,WUHU216HW,2013-05-21 03:41:00,
2013-05-20 23:43:00,65.9,62.2,29.88,SW,225,0.0,0.0,88,0.00,,,0.00,WUHU216HW,2013-05-21 03:43:00,
2013-05-20 23:45:00,65.7,62.0,29.88,SW,225,0.0,0.0,88,0.00,,,0.00,WUHU216HW,2013-05-21 03:45:00,
2013-05-20 23:48:00,65.5,61.8,29.88,SE,135,0.0,0.0,88,0.00,,,0.00,WUHU216HW,2013-05-21 03:48:00,
2013-05-20 23:49:00,65.5,61.8,29.88,SE,135,0.0,0.0,88,0.00,,,0.00,WUHU216HW,2013-05-21 03:49:00,
2013-05-20 23:50:00,65.5,61.8,29.88,SE,135,0.0,0.0,88,0.00,,,0.00,WUHU216HW,2013-05-21 03:50:00,
2013-05-20 23:51:00,65.5,62.2,29.88,SE,135,0.0,0.0,89,0.00,,,0.00,WUHU216HW,2013-05-21 03:51:00,
2013-05-20 23:53:00,65.5,62.2,29.88,SE,135,0.0,0.0,89,0.00,,,0.00,WUHU216HW,2013-05-21 03:53:00,
2013-05-20 23:55:00,65.3,61.8,29.88,SE,135,0.0,0.0,88,0.00,,,0.00,WUHU216HW,2013-05-21 03:55:00,
2013-05-20 23:56:00,65.3,61.8,29.88,SE,135,0.0,0.0,88,0.00,,,0.00,WUHU216HW,2013-05-21 03:56:00,
2013-05-20 23:57:00,65.3,61.8,29.88,SE,135,0.0,0.0,88,0.00,,,0.00,WUHU216HW,2013-05-21 03:57:00,
2013-05-20 23:58:00,65.3,61.8,29.88,SE,135,0.0,0.0,88,0.00,,,0.00,WUHU216HW,2013-05-21 03:58:00,
2013-05-20 23:59:00,65.3,61.8,29.88,SE,135,0.0,0.0,88,0.00,,,0.00,WUHU216HW,2013-05-21 03:59:00,